Time,TemperatureF,DewpointF,PressureIn,WindDirection,WindDirectionDegrees,WindSpeedMPH,WindSpeedGustMPH,Humidity,HourlyPrecipIn,Conditions,Clouds,dailyrainin,SolarRadiationWatts/m^2,SoftwareType,DateUTC
2013-07-30 00:00:00,81.4,78.2,29.98,SSE,160,6.0,13.2,90,0.00,,---,0.00,0.00,VWS V14.01,2013-07-30 05:00:00,
2013-07-30 00:02:00,81.4,78.2,29.98,ESE,117,4.0,8.2,90,0.00,,---,0.00,0.00,VWS V14.01,2013-07-30 05:02:00,
2013-07-30 00:05:00,81.6,78.4,29.98,SSE,163,9.0,16.2,90,0.00,,---,0.00,0.00,VWS V14.01,2013-07-30 05:05:00,
2013-07-30 00:07:00,81.6,78.4,29.98,South,173,10.0,15.2,90,0.00,,---,0.00,0.00,VWS V14.01,2013-07-30 05:07:00,
2013-07-30 00:10:00,81.8,78.6,29.98,SSE,153,7.0,18.2,90,0.00,,---,0.00,0.00,VWS V14.01,2013-07-30 05:10:00,
2013-07-30 00:12:00,81.8,78.6,29.98,SE,144,4.0,15.2,90,0.00,,---,0.00,0.00,VWS V14.01,2013-07-30 05:12:00,
2013-07-30 00:15:00,81.6,78.4,29.98,SSE,167,4.0,15.2,90,0.00,,---,0.00,0.00,VWS V14.01,2013-07-30 05:15:00,
2013-07-30 00:17:00,81.6,78.4,29.98,SE,144,10.0,17.2,90,0.00,,---,0.00,0.00,VWS V14.01,2013-07-30 05:17:00,
2013-07-30 00:20:00,81.4,78.2,29.98,SE,126,6.0,17.2,90,0.00,,---,0.00,0.00,VWS V14.01,2013-07-30 05:20:00,
2013-07-30 00:22:00,81.4,78.2,29.98,SSE,150,12.0,14.2,90,0.00,,---,0.00,0.00,VWS V14.01,2013-07-30 05:22:00,
2013-07-30 00:25:00,81.2,78.3,29.98,ESE,121,12.0,16.2,91,0.00,,---,0.00,0.00,VWS V14.01,2013-07-30 05:25:00,
2013-07-30 00:27:00,81.2,78.3,29.98,SSE,159,5.0,13.2,91,0.00,,---,0.00,0.00,VWS V14.01,2013-07-30 05:27:00,
2013-07-30 00:30:00,81.2,78.3,29.98,SE,136,8.0,17.2,91,0.00,,---,0.00,0.00,VWS V14.01,2013-07-30 05:30:00,
2013-07-30 00:32:00,81.2,78.3,29.98,SSE,148,5.0,12.2,91,0.00,,---,0.00,0.00,VWS V14.01,2013-07-30 05:32:00,
2013-07-30 00:35:00,81.2,78.3,29.98,SSE,151,10.0,14.2,91,0.00,,---,0.00,0.00,VWS V14.01,2013-07-30 05:35:00,
2013-07-30 00:37:00,81.2,78.3,29.98,SSE,148,6.0,17.2,91,0.00,,---,0.00,0.00,VWS V14.01,2013-07-30 05:37:00,
2013-07-30 00:40:00,81.1,78.2,29.98,SSE,151,7.0,17.2,91,0.00,,---,0.00,0.00,VWS V14.01,2013-07-30 05:40:00,
2013-07-30 00:42:00,81.1,78.2,29.98,SSE,153,5.0,13.2,91,0.00,,---,0.00,0.00,VWS V14.01,2013-07-30 05:42:00,
2013-07-30 00:45:00,81.1,78.2,29.98,SE,146,5.0,14.2,91,0.00,,---,0.00,0.00,VWS V14.01,2013-07-30 05:45:00,
2013-07-30 00:47:00,81.2,78.7,29.98,SE,125,3.0,8.2,92,0.00,,---,0.00,0.00,VWS V14.01,2013-07-30 05:47:00,
2013-07-30 00:50:00,81.6,78.7,29.98,SE,135,6.0,14.2,91,0.00,,---,0.00,0.00,VWS V14.01,2013-07-30 05:50:00,
2013-07-30 00:52:00,81.6,78.7,29.98,SSE,152,9.0,14.2,91,0.00,,---,0.00,0.00,VWS V14.01,2013-07-30 05:52:00,
2013-07-30 00:55:00,81.4,78.5,29.98,SE,138,11.0,15.2,91,0.00,,---,0.00,0.00,VWS V14.01,2013-07-30 05:55:00,
2013-07-30 00:57:00,81.4,78.5,29.98,SE,128,10.0,12.2,91,0.00,,---,0.00,0.00,VWS V14.01,2013-07-30 05:57:00,
2013-07-30 01:00:00,81.4,78.5,29.98,SE,133,2.0,13.2,91,0.00,,---,0.00,0.00,VWS V14.01,2013-07-30 06:00:00,
2013-07-30 01:02:00,81.2,78.3,29.98,SE,135,2.0,15.2,91,0.00,,---,0.00,0.00,VWS V14.01,2013-07-30 06:02:00,
2013-07-30 01:05:00,81.2,78.3,29.98,SSE,157,5.0,15.2,91,0.00,,---,0.00,0.00,VWS V14.01,2013-07-30 06:05:00,
2013-07-30 01:07:00,81.2,78.3,29.98,SSE,163,6.0,7.2,91,0.00,,---,0.00,0.00,VWS V14.01,2013-07-30 06:07:00,
2013-07-30 01:10:00,81.1,78.2,29.98,SSE,147,12.0,16.2,91,0.00,,---,0.00,0.00,VWS V14.01,2013-07-30 06:10:00,
2013-07-30 01:12:00,81.1,78.6,29.98,SE,134,8.0,14.2,92,0.00,,---,0.00,0.00,VWS V14.01,2013-07-30 06:12:00,
2013-07-30 01:15:00,81.1,78.6,29.98,SE,130,6.0,14.2,92,0.00,,---,0.00,0.00,VWS V14.01,2013-07-30 06:15:00,
2013-07-30 01:17:00,81.1,78.6,29.98,SSE,148,3.0,8.2,92,0.00,,---,0.00,0.00,VWS V14.01,2013-07-30 06:17:00,
2013-07-30 01:20:00,80.9,78.4,29.98,SSE,150,9.0,14.2,92,0.00,,---,0.00,0.00,VWS V14.01,2013-07-30 06:20:00,
2013-07-30 01:22:00,80.9,78.4,29.98,SSE,148,2.0,12.2,92,0.00,,---,0.00,0.00,VWS V14.01,2013-07-30 06:22:00,
2013-07-30 01:25:00,80.9,78.4,29.98,SE,143,3.0,16.2,92,0.00,,---,0.00,0.00,VWS V14.01,2013-07-30 06:25:00,
2013-07-30 01:27:00,80.9,78.4,29.98,SE,138,3.0,7.2,92,0.00,,---,0.00,0.00,VWS V14.01,2013-07-30 06:27:00,
2013-07-30 01:30:00,81.1,78.6,29.98,SE,137,5.0,12.2,92,0.00,,---,0.00,0.00,VWS V14.01,2013-07-30 06:30:00,
2013-07-30 01:32:00,81.1,78.6,29.98,SSE,149,6.0,7.2,92,0.00,,---,0.00,0.00,VWS V14.01,2013-07-30 06:32:00,
2013-07-30 01:35:00,81.1,78.6,29.98,SE,140,12.0,15.2,92,0.00,,---,0.00,0.00,VWS V14.01,2013-07-30 06:35:00,
2013-07-30 01:37:00,81.1,78.6,29.98,SSE,150,6.0,13.2,92,0.00,,---,0.00,0.00,VWS V14.01,2013-07-30 06:37:00,
2013-07-30 01:40:00,81.1,78.6,29.98,SSE,165,11.0,13.2,92,0.00,,---,0.00,0.00,VWS V14.01,2013-07-30 06:40:00,
2013-07-30 01:42:00,81.1,78.6,29.98,SE,130,9.0,14.2,92,0.00,,---,0.00,0.00,VWS V14.01,2013-07-30 06:42:00,
2013-07-30 01:45:00,81.2,78.7,29.98,SE,126,9.0,14.2,92,0.00,,---,0.00,0.00,VWS V14.01,2013-07-30 06:45:00,
2013-07-30 01:47:00,81.2,78.7,29.98,SSE,153,14.0,15.2,92,0.00,,---,0.00,0.00,VWS V14.01,2013-07-30 06:47:00,
2013-07-30 01:50:00,81.2,78.7,29.98,South,184,7.0,15.2,92,0.00,,---,0.00,0.00,VWS V14.01,2013-07-30 06:50:00,
2013-07-30 01:52:00,81.1,78.6,29.98,SE,141,2.0,8.2,92,0.00,,---,0.00,0.00,VWS V14.01,2013-07-30 06:52:00,
2013-07-30 01:55:00,81.1,78.6,29.98,SE,128,6.0,15.2,92,0.00,,---,0.00,0.00,VWS V14.01,2013-07-30 06:55:00,
2013-07-30 01:57:00,80.9,78.4,29.98,SSE,148,4.0,10.2,92,0.00,,---,0.00,0.00,VWS V14.01,2013-07-30 06:57:00,
2013-07-30 02:00:00,80.9,78.4,29.98,South,175,4.0,17.2,92,0.00,,---,0.00,0.00,VWS V14.01,2013-07-30 07:00:00,
2013-07-30 02:02:00,80.9,78.4,29.98,SSE,168,5.0,10.2,92,0.00,,---,0.00,0.00,VWS V14.01,2013-07-30 07:02:00,
2013-07-30 02:05:00,80.9,78.4,29.98,SE,146,10.0,13.2,92,0.00,,---,0.00,0.00,VWS V14.01,2013-07-30 07:05:00,
2013-07-30 02:07:00,80.9,78.4,29.98,SE,144,5.0,13.2,92,0.00,,---,0.00,0.00,VWS V14.01,2013-07-30 07:07:00,
2013-07-30 02:10:00,80.9,78.4,29.98,SE,146,2.0,16.2,92,0.00,,---,0.00,0.00,VWS V14.01,2013-07-30 07:10:00,
2013-07-30 02:12:00,81.1,78.6,29.98,SSE,159,9.0,14.2,92,0.00,,---,0.00,0.00,VWS V14.01,2013-07-30 07:12:00,
2013-07-30 02:15:00,81.1,78.6,29.97,South,171,7.0,16.2,92,0.00,,---,0.00,0.00,VWS V14.01,2013-07-30 07:15:00,
2013-07-30 02:17:00,81.1,78.6,29.97,SE,146,12.0,17.2,92,0.00,,---,0.00,0.00,VWS V14.01,2013-07-30 07:17:00,
2013-07-30 02:20:00,80.9,78.4,29.97,SE,143,6.0,17.2,92,0.00,,---,0.00,0.00,VWS V14.01,2013-07-30 07:20:00,
2013-07-30 02:22:00,80.9,78.4,29.97,SSE,162,6.0,15.2,92,0.00,,---,0.00,0.00,VWS V14.01,2013-07-30 07:22:00,
2013-07-30 02:25:00,80.9,78.4,29.97,South,184,10.0,15.2,92,0.00,,---,0.00,0.00,VWS V14.01,2013-07-30 07:25:00,
2013-07-30 02:27:00,80.9,78.4,29.97,SSE,152,7.0,15.2,92,0.00,,---,0.00,0.00,VWS V14.01,2013-07-30 07:27:00,
2013-07-30 02:30:00,80.9,78.4,29.97,SE,143,10.0,17.2,92,0.00,,---,0.00,0.00,VWS V14.01,2013-07-30 07:30:00,
2013-07-30 02:32:00,80.9,78.4,29.97,SE,146,6.0,17.2,92,0.00,,---,0.00,0.00,VWS V14.01,2013-07-30 07:32:00,
2013-07-30 02:35:00,81.1,78.6,29.97,SSE,152,5.0,17.2,92,0.00,,---,0.00,0.00,VWS V14.01,2013-07-30 07:35:00,
2013-07-30 02:37:00,81.1,78.6,29.97,SSE,157,6.0,20.2,92,0.00,,---,0.00,0.00,VWS V14.01,2013-07-30 07:37:00,
2013-07-30 02:40:00,81.1,78.6,29.97,SE,138,12.0,20.2,92,0.00,,---,0.00,0.00,VWS V14.01,2013-07-30 07:40:00,
2013-07-30 02:42:00,80.9,78.4,29.97,SE,132,11.0,13.2,92,0.00,,---,0.00,0.00,VWS V14.01,2013-07-30 07:42:00,
2013-07-30 02:45:00,80.9,78.4,29.96,South,172,9.0,18.2,92,0.00,,---,0.00,0.00,VWS V14.01,2013-07-30 07:45:00,
2013-07-30 02:47:00,80.9,78.4,29.96,SSE,148,9.0,17.2,92,0.00,,---,0.00,0.00,VWS V14.01,2013-07-30 07:47:00,
2013-07-30 02:50:00,80.7,78.2,29.96,SSE,166,6.0,19.2,92,0.00,,---,0.00,0.00,VWS V14.01,2013-07-30 07:50:00,
2013-07-30 02:52:00,80.7,78.2,29.96,SSE,147,7.0,11.2,92,0.00,,---,0.00,0.00,VWS V14.01,2013-07-30 07:52:00,
2013-07-30 02:55:00,80.9,78.4,29.96,SSE,152,5.0,16.2,92,0.00,,---,0.00,0.00,VWS V14.01,2013-07-30 07:55:00,
2013-07-30 02:57:00,80.9,78.4,29.96,ESE,113,7.0,13.2,92,0.00,,---,0.00,0.00,VWS V14.01,2013-07-30 07:57:00,
2013-07-30 03:00:00,80.9,78.4,29.97,SE,133,7.0,14.2,92,0.00,,---,0.00,0.00,VWS V14.01,2013-07-30 08:00:00,
2013-07-30 03:02:00,80.9,78.4,29.97,South,169,5.0,14.2,92,0.00,,---,0.00,0.00,VWS V14.01,2013-07-30 08:02:00,
2013-07-30 03:05:00,80.9,78.4,29.97,SE,135,9.0,14.2,92,0.00,,---,0.00,0.00,VWS V14.01,2013-07-30 08:05:00,
2013-07-30 03:07:00,80.7,78.5,29.97,SSE,147,13.0,14.2,93,0.00,,---,0.00,0.00,VWS V14.01,2013-07-30 08:07:00,
2013-07-30 03:10:00,80.7,78.5,29.97,South,171,7.0,16.2,93,0.00,,---,0.00,0.00,VWS V14.01,2013-07-30 08:10:00,
2013-07-30 03:12:00,80.7,78.5,29.97,ESE,115,9.0,16.2,93,0.00,,---,0.00,0.00,VWS V14.01,2013-07-30 08:12:00,
2013-07-30 03:15:00,80.7,78.5,29.97,SE,140,11.0,16.2,93,0.00,,---,0.00,0.00,VWS V14.01,2013-07-30 08:15:00,
2013-07-30 03:17:00,80.7,78.5,29.97,ESE,119,11.0,17.2,93,0.00,,---,0.00,0.00,VWS V14.01,2013-07-30 08:17:00,
2013-07-30 03:20:00,80.7,78.5,29.97,SSE,156,9.0,17.2,93,0.00,,---,0.00,0.00,VWS V14.01,2013-07-30 08:20:00,
2013-07-30 03:22:00,80.7,78.5,29.97,ESE,117,5.0,16.2,93,0.00,,---,0.00,0.00,VWS V14.01,2013-07-30 08:22:00,
2013-07-30 03:25:00,80.7,78.5,29.97,SSE,153,18.0,19.2,93,0.00,,---,0.00,0.00,VWS V14.01,2013-07-30 08:25:00,
2013-07-30 03:27:00,80.7,78.5,29.97,SE,142,4.0,19.2,93,0.00,,---,0.00,0.00,VWS V14.01,2013-07-30 08:27:00,
2013-07-30 03:30:00,80.7,78.5,29.97,SE,138,10.0,19.2,93,0.00,,---,0.00,0.00,VWS V14.01,2013-07-30 08:30:00,
2013-07-30 03:32:00,80.7,78.5,29.97,SE,144,5.0,11.2,93,0.00,,---,0.00,0.00,VWS V14.01,2013-07-30 08:32:00,
2013-07-30 03:35:00,80.9,78.7,29.97,SE,133,5.0,17.2,93,0.00,,---,0.00,0.00,VWS V14.01,2013-07-30 08:35:00,
2013-07-30 03:37:00,80.9,78.7,29.97,SE,134,6.0,16.2,93,0.00,,---,0.00,0.00,VWS V14.01,2013-07-30 08:37:00,
2013-07-30 03:40:00,80.7,78.5,29.97,SE,140,7.0,16.2,93,0.00,,---,0.00,0.00,VWS V14.01,2013-07-30 08:40:00,
2013-07-30 03:42:00,80.7,78.5,29.97,SSE,159,3.0,17.2,93,0.00,,---,0.00,0.00,VWS V14.01,2013-07-30 08:42:00,
2013-07-30 03:45:00,80.7,78.5,29.96,SE,144,7.0,17.2,93,0.00,,---,0.00,0.00,VWS V14.01,2013-07-30 08:45:00,
2013-07-30 03:47:00,80.7,78.5,29.96,SE,146,12.0,13.2,93,0.00,,---,0.00,0.00,VWS V14.01,2013-07-30 08:47:00,
2013-07-30 03:50:00,80.5,78.3,29.96,SSE,166,11.0,19.2,93,0.00,,---,0.00,0.00,VWS V14.01,2013-07-30 08:50:00,
2013-07-30 03:52:00,80.5,78.3,29.96,SE,142,5.0,12.2,93,0.00,,---,0.00,0.00,VWS V14.01,2013-07-30 08:52:00,
2013-07-30 03:55:00,80.5,78.3,29.96,SSE,159,9.0,14.2,93,0.00,,---,0.00,0.00,VWS V14.01,2013-07-30 08:55:00,
2013-07-30 03:57:00,80.5,78.6,29.96,SE,140,8.0,18.2,94,0.00,,---,0.00,0.00,VWS V14.01,2013-07-30 08:57:00,
2013-07-30 04:00:00,80.5,78.6,29.95,SSE,156,10.0,18.2,94,0.00,,---,0.00,0.00,VWS V14.01,2013-07-30 09:00:00,
2013-07-30 04:02:00,80.5,78.6,29.95,SE,144,6.0,18.2,94,0.00,,---,0.00,0.00,VWS V14.01,2013-07-30 09:02:00,
2013-07-30 04:05:00,80.5,78.6,29.95,SE,144,6.0,18.2,94,0.00,,---,0.00,0.00,VWS V14.01,2013-07-30 09:05:00,
2013-07-30 04:07:00,80.3,78.4,29.95,South,175,13.0,14.2,94,0.00,,---,0.00,0.00,VWS V14.01,2013-07-30 09:07:00,
2013-07-30 04:10:00,80.3,78.4,29.95,SSE,150,6.0,15.2,94,0.00,,---,0.00,0.00,VWS V14.01,2013-07-30 09:10:00,
2013-07-30 04:12:00,80.3,78.4,29.95,SSE,150,6.0,14.2,94,0.00,,---,0.00,0.00,VWS V14.01,2013-07-30 09:12:00,
2013-07-30 04:15:00,80.3,78.4,29.96,South,175,6.0,16.2,94,0.00,,---,0.00,0.00,VWS V14.01,2013-07-30 09:15:00,
2013-07-30 04:17:00,80.3,78.4,29.96,SE,142,9.0,13.2,94,0.00,,---,0.00,0.00,VWS V14.01,2013-07-30 09:17:00,
2013-07-30 04:20:00,80.3,78.4,29.96,SSE,148,6.0,17.2,94,0.00,,---,0.00,0.00,VWS V14.01,2013-07-30 09:20:00,
2013-07-30 04:22:00,80.3,78.4,29.96,SSE,154,5.0,15.2,94,0.00,,---,0.00,0.00,VWS V14.01,2013-07-30 09:22:00,
2013-07-30 04:25:00,80.5,78.6,29.96,SSE,153,12.0,15.2,94,0.00,,---,0.00,0.00,VWS V14.01,2013-07-30 09:25:00,
2013-07-30 04:27:00,80.5,78.6,29.96,SSE,153,5.0,13.2,94,0.00,,---,0.00,0.00,VWS V14.01,2013-07-30 09:27:00,
2013-07-30 04:30:00,80.7,78.8,29.96,SE,142,3.0,13.2,94,0.00,,---,0.00,0.00,VWS V14.01,2013-07-30 09:30:00,
2013-07-30 04:32:00,80.9,78.7,29.96,SSE,149,6.0,11.2,93,0.00,,---,0.00,0.00,VWS V14.01,2013-07-30 09:32:00,
2013-07-30 04:35:00,80.7,78.5,29.96,SE,140,4.0,15.2,93,0.00,,---,0.00,0.00,VWS V14.01,2013-07-30 09:35:00,
2013-07-30 04:37:00,80.7,78.5,29.96,SSE,153,3.0,12.2,93,0.00,,---,0.00,0.00,VWS V14.01,2013-07-30 09:37:00,
2013-07-30 04:40:00,80.5,78.3,29.96,SSE,163,4.0,12.2,93,0.00,,---,0.00,0.00,VWS V14.01,2013-07-30 09:40:00,
2013-07-30 04:42:00,80.5,78.3,29.96,SSE,157,12.0,13.2,93,0.00,,---,0.00,0.00,VWS V14.01,2013-07-30 09:42:00,
2013-07-30 04:45:00,80.5,78.3,29.96,SE,146,3.0,13.2,93,0.00,,---,0.00,0.00,VWS V14.01,2013-07-30 09:45:00,
2013-07-30 04:47:00,80.3,78.4,29.96,SE,142,12.0,13.2,94,0.00,,---,0.00,0.00,VWS V14.01,2013-07-30 09:47:00,
2013-07-30 04:50:00,80.3,78.4,29.96,SE,143,4.0,17.2,94,0.00,,---,0.00,0.00,VWS V14.01,2013-07-30 09:50:00,
2013-07-30 04:52:00,80.3,78.4,29.96,SE,142,11.0,13.2,94,0.00,,---,0.00,0.00,VWS V14.01,2013-07-30 09:52:00,
2013-07-30 04:55:00,80.3,78.4,29.96,SE,132,6.0,13.2,94,0.00,,---,0.00,0.00,VWS V14.01,2013-07-30 09:55:00,
2013-07-30 04:57:00,80.3,78.4,29.96,SSE,157,7.0,16.2,94,0.00,,---,0.00,0.00,VWS V14.01,2013-07-30 09:57:00,
2013-07-30 05:00:00,80.3,78.4,29.96,SE,131,10.0,16.2,94,0.00,,---,0.00,0.00,VWS V14.01,2013-07-30 10:00:00,
2013-07-30 05:02:00,80.3,78.4,29.96,ESE,121,3.0,11.2,94,0.00,,---,0.00,0.00,VWS V14.01,2013-07-30 10:02:00,
2013-07-30 05:05:00,80.3,78.4,29.96,SE,144,4.0,15.2,94,0.00,,---,0.00,0.00,VWS V14.01,2013-07-30 10:05:00,
2013-07-30 05:07:00,80.3,78.4,29.96,South,169,2.0,11.2,94,0.00,,---,0.00,0.00,VWS V14.01,2013-07-30 10:07:00,
2013-07-30 05:10:00,80.3,78.4,29.96,SSE,165,4.0,19.2,94,0.00,,---,0.00,0.00,VWS V14.01,2013-07-30 10:10:00,
2013-07-30 05:12:00,80.3,78.4,29.96,SSE,147,5.0,15.2,94,0.00,,---,0.00,0.00,VWS V14.01,2013-07-30 10:12:00,
2013-07-30 05:15:00,80.3,78.4,29.96,SSE,155,8.0,16.2,94,0.00,,---,0.00,0.00,VWS V14.01,2013-07-30 10:15:00,
2013-07-30 05:18:00,80.3,78.4,29.96,SSE,156,3.0,15.2,94,0.00,,---,0.00,0.00,VWS V14.01,2013-07-30 10:18:00,
2013-07-30 05:20:00,80.5,78.6,29.96,SE,138,6.0,16.2,94,0.00,,---,0.00,0.00,VWS V14.01,2013-07-30 10:20:00,
2013-07-30 05:22:00,80.5,78.6,29.96,SSE,166,4.0,15.2,94,0.00,,---,0.00,0.00,VWS V14.01,2013-07-30 10:22:00,
2013-07-30 05:25:00,80.5,78.6,29.96,South,175,9.0,15.2,94,0.00,,---,0.00,0.00,VWS V14.01,2013-07-30 10:25:00,
2013-07-30 05:27:00,80.5,78.6,29.96,SSE,165,8.0,14.2,94,0.00,,---,0.00,0.00,VWS V14.01,2013-07-30 10:27:00,
2013-07-30 05:30:00,80.5,78.6,29.97,South,173,5.0,14.2,94,0.00,,---,0.00,0.00,VWS V14.01,2013-07-30 10:30:00,
2013-07-30 05:32:00,80.5,78.6,29.97,SSE,149,7.0,14.2,94,0.00,,---,0.00,0.00,VWS V14.01,2013-07-30 10:32:00,
2013-07-30 05:35:00,80.3,78.1,29.97,SE,144,11.0,14.2,93,0.00,,---,0.00,0.00,VWS V14.01,2013-07-30 10:35:00,
2013-07-30 05:37:00,80.3,78.1,29.97,South,173,10.0,15.2,93,0.00,,---,0.00,0.00,VWS V14.01,2013-07-30 10:37:00,
2013-07-30 05:40:00,80.3,78.4,29.97,SE,134,4.0,15.2,94,0.00,,---,0.00,0.00,VWS V14.01,2013-07-30 10:40:00,
2013-07-30 05:42:00,80.1,78.2,29.97,SSE,155,4.0,9.2,94,0.00,,---,0.00,0.00,VWS V14.01,2013-07-30 10:42:00,
2013-07-30 05:45:00,80.1,78.2,29.98,SSE,148,4.0,11.2,94,0.00,,---,0.00,0.00,VWS V14.01,2013-07-30 10:45:00,
2013-07-30 05:47:00,80.1,78.2,29.98,SSE,155,6.0,8.2,94,0.00,,---,0.00,0.00,VWS V14.01,2013-07-30 10:47:00,
2013-07-30 05:50:00,80.1,78.2,29.98,SE,134,3.0,16.2,94,0.00,,---,0.00,0.00,VWS V14.01,2013-07-30 10:50:00,
2013-07-30 05:52:00,80.1,78.2,29.98,SSE,153,12.0,13.2,94,0.00,,---,0.00,0.00,VWS V14.01,2013-07-30 10:52:00,
2013-07-30 05:55:00,80.1,78.2,29.98,SSE,152,12.0,13.2,94,0.00,,---,0.00,0.00,VWS V14.01,2013-07-30 10:55:00,
2013-07-30 05:57:00,80.1,78.2,29.98,SE,144,3.0,15.2,94,0.00,,---,0.00,0.00,VWS V14.01,2013-07-30 10:57:00,
2013-07-30 06:00:00,80.1,78.2,29.98,SE,142,4.0,15.2,94,0.00,,---,0.00,0.00,VWS V14.01,2013-07-30 11:00:00,
2013-07-30 06:02:00,80.1,78.2,29.98,SE,134,5.0,13.2,94,0.00,,---,0.00,0.00,VWS V14.01,2013-07-30 11:02:00,
2013-07-30 06:05:00,80.1,78.2,29.98,SE,134,6.0,13.2,94,0.00,,---,0.00,0.00,VWS V14.01,2013-07-30 11:05:00,
2013-07-30 06:07:00,80.3,78.4,29.98,SSE,154,9.0,11.2,94,0.00,,---,0.00,0.00,VWS V14.01,2013-07-30 11:07:00,
2013-07-30 06:10:00,80.3,78.4,29.98,SE,136,3.0,12.2,94,0.00,,---,0.00,0.00,VWS V14.01,2013-07-30 11:10:00,
2013-07-30 06:12:00,80.3,78.4,29.98,SSE,147,3.0,10.2,94,0.00,,---,0.00,0.00,VWS V14.01,2013-07-30 11:12:00,
2013-07-30 06:15:00,80.1,78.2,29.99,SSE,164,5.0,12.2,94,0.00,,---,0.00,0.00,VWS V14.01,2013-07-30 11:15:00,
2013-07-30 06:17:00,80.1,78.2,29.99,SSE,150,4.0,7.2,94,0.00,,---,0.00,0.00,VWS V14.01,2013-07-30 11:17:00,
2013-07-30 06:20:00,80.1,78.2,29.99,SE,138,4.0,12.2,94,0.00,,---,0.00,0.00,VWS V14.01,2013-07-30 11:20:00,
2013-07-30 06:22:00,80.1,78.2,29.99,SSE,148,5.0,11.2,94,0.00,,---,0.00,0.00,VWS V14.01,2013-07-30 11:22:00,
2013-07-30 06:25:00,80.1,78.2,29.99,SE,144,5.0,11.2,94,0.00,,---,0.00,0.00,VWS V14.01,2013-07-30 11:25:00,
2013-07-30 06:27:00,80.1,78.2,29.99,SE,141,6.0,9.2,94,0.00,,---,0.00,0.00,VWS V14.01,2013-07-30 11:27:00,
2013-07-30 06:30:00,80.1,78.2,29.99,SE,140,6.0,11.2,94,0.00,,---,0.00,0.00,VWS V14.01,2013-07-30 11:30:00,
2013-07-30 06:32:00,80.1,78.2,29.99,SE,135,6.0,11.2,94,0.00,,---,0.00,0.00,VWS V14.01,2013-07-30 11:32:00,
2013-07-30 06:35:00,80.1,78.2,29.99,SE,140,3.0,11.2,94,0.00,,---,0.00,0.00,VWS V14.01,2013-07-30 11:35:00,
2013-07-30 06:37:00,80.1,78.2,29.99,ESE,123,9.0,13.2,94,0.00,,---,0.00,0.00,VWS V14.01,2013-07-30 11:37:00,
2013-07-30 06:40:00,79.9,78.0,29.99,SE,130,2.0,13.2,94,0.00,,---,0.00,0.00,VWS V14.01,2013-07-30 11:40:00,
2013-07-30 06:42:00,79.9,78.0,29.99,SSE,157,9.0,10.2,94,0.00,,---,0.00,0.00,VWS V14.01,2013-07-30 11:42:00,
2013-07-30 06:45:00,79.9,78.0,30.00,SSE,161,3.0,10.2,94,0.00,,---,0.00,0.00,VWS V14.01,2013-07-30 11:45:00,
2013-07-30 06:47:00,79.9,78.0,30.00,SSE,153,0.0,7.2,94,0.00,,---,0.00,0.00,VWS V14.01,2013-07-30 11:47:00,
2013-07-30 06:50:00,79.8,78.2,30.00,SSE,148,4.0,9.2,95,0.00,,---,0.00,0.00,VWS V14.01,2013-07-30 11:50:00,
2013-07-30 06:52:00,79.8,78.2,30.00,SSE,149,4.0,5.2,95,0.00,,---,0.00,0.00,VWS V14.01,2013-07-30 11:52:00,
2013-07-30 06:55:00,79.9,78.3,30.00,SSE,147,3.0,7.2,95,0.00,,---,0.00,5.00,VWS V14.01,2013-07-30 11:55:00,
2013-07-30 06:57:00,79.9,78.3,30.00,SE,144,2.0,7.2,95,0.00,,---,0.00,7.00,VWS V14.01,2013-07-30 11:57:00,
2013-07-30 07:00:00,79.9,78.0,30.00,SE,134,5.0,9.2,94,0.00,,---,0.00,9.00,VWS V14.01,2013-07-30 12:00:00,
2013-07-30 07:02:00,79.9,78.0,30.00,SE,146,3.0,6.2,94,0.00,,---,0.00,11.00,VWS V14.01,2013-07-30 12:02:00,
2013-07-30 07:05:00,79.9,78.0,30.00,South,171,2.0,8.2,94,0.00,,---,0.00,14.00,VWS V14.01,2013-07-30 12:05:00,
2013-07-30 07:07:00,79.9,78.0,30.00,South,171,0.0,4.2,94,0.00,,---,0.00,16.00,VWS V14.01,2013-07-30 12:07:00,
2013-07-30 07:10:00,79.9,78.0,30.00,SSE,147,2.0,7.2,94,0.00,,---,0.00,19.00,VWS V14.01,2013-07-30 12:10:00,
2013-07-30 07:12:00,79.8,78.2,30.00,SE,140,6.0,8.2,95,0.00,,---,0.00,21.00,VWS V14.01,2013-07-30 12:12:00,
2013-07-30 07:15:00,79.8,78.2,30.01,SE,140,3.0,8.2,95,0.00,,---,0.00,25.00,VWS V14.01,2013-07-30 12:15:00,
2013-07-30 07:17:00,79.9,78.3,30.01,SE,143,2.0,6.2,95,0.00,,---,0.00,25.00,VWS V14.01,2013-07-30 12:17:00,
2013-07-30 07:20:00,80.1,78.5,30.01,SE,142,3.0,8.2,95,0.00,,---,0.00,28.00,VWS V14.01,2013-07-30 12:20:00,
2013-07-30 07:22:00,80.1,78.5,30.01,SE,142,3.0,6.2,95,0.00,,---,0.00,30.00,VWS V14.01,2013-07-30 12:22:00,
2013-07-30 07:25:00,80.3,78.4,30.01,SE,144,2.0,7.2,94,0.00,,---,0.00,33.00,VWS V14.01,2013-07-30 12:25:00,
2013-07-30 07:27:00,80.3,78.4,30.01,SE,144,4.0,7.2,94,0.00,,---,0.00,35.00,VWS V14.01,2013-07-30 12:27:00,
2013-07-30 07:30:00,80.5,78.6,30.01,SE,140,5.0,8.2,94,0.00,,---,0.00,37.00,VWS V14.01,2013-07-30 12:30:00,
2013-07-30 07:32:00,80.5,78.6,30.01,SE,140,4.0,7.2,94,0.00,,---,0.00,39.00,VWS V14.01,2013-07-30 12:32:00,
2013-07-30 07:35:00,80.5,78.6,30.01,SE,144,6.0,7.2,94,0.00,,---,0.00,42.00,VWS V14.01,2013-07-30 12:35:00,
2013-07-30 07:37:00,80.5,78.6,30.01,SE,142,4.0,9.2,94,0.00,,---,0.00,42.00,VWS V14.01,2013-07-30 12:37:00,
2013-07-30 07:40:00,80.7,78.8,30.01,SE,146,4.0,10.2,94,0.00,,---,0.00,46.00,VWS V14.01,2013-07-30 12:40:00,
2013-07-30 07:42:00,80.7,78.5,30.01,SSE,155,7.0,8.2,93,0.00,,---,0.00,47.00,VWS V14.01,2013-07-30 12:42:00,
2013-07-30 07:45:00,80.7,78.5,30.00,SSE,151,4.0,11.2,93,0.00,,---,0.00,49.00,VWS V14.01,2013-07-30 12:45:00,
2013-07-30 07:47:00,80.7,78.5,30.00,SSE,148,5.0,11.2,93,0.00,,---,0.00,51.00,VWS V14.01,2013-07-30 12:47:00,
2013-07-30 07:50:00,80.7,78.5,30.00,SSE,167,6.0,11.2,93,0.00,,---,0.00,54.00,VWS V14.01,2013-07-30 12:50:00,
2013-07-30 07:52:00,80.7,78.5,30.00,SE,140,5.0,10.2,93,0.00,,---,0.00,54.00,VWS V14.01,2013-07-30 12:52:00,
2013-07-30 07:55:00,80.9,78.7,30.00,SE,139,9.0,10.2,93,0.00,,---,0.00,58.00,VWS V14.01,2013-07-30 12:55:00,
2013-07-30 07:57:00,80.9,78.7,30.00,SSE,147,4.0,10.2,93,0.00,,---,0.00,60.00,VWS V14.01,2013-07-30 12:57:00,
2013-07-30 08:00:00,80.9,78.7,30.01,SSE,154,4.0,13.2,93,0.00,,---,0.00,62.00,VWS V14.01,2013-07-30 13:00:00,
2013-07-30 08:02:00,80.9,78.7,30.01,SE,130,3.0,7.2,93,0.00,,---,0.00,63.00,VWS V14.01,2013-07-30 13:02:00,
2013-07-30 08:05:00,81.1,78.6,30.01,SE,134,3.0,8.2,92,0.00,,---,0.00,65.00,VWS V14.01,2013-07-30 13:05:00,
2013-07-30 08:07:00,81.2,79.0,30.01,SE,134,4.0,7.2,93,0.00,,---,0.00,65.00,VWS V14.01,2013-07-30 13:07:00,
2013-07-30 08:10:00,81.2,78.7,30.01,SE,138,4.0,10.2,92,0.00,,---,0.00,70.00,VWS V14.01,2013-07-30 13:10:00,
2013-07-30 08:12:00,81.4,78.9,30.01,SE,142,4.0,11.2,92,0.00,,---,0.00,70.00,VWS V14.01,2013-07-30 13:12:00,
2013-07-30 08:15:00,81.6,79.1,30.01,SSE,156,7.0,11.2,92,0.00,,---,0.00,74.00,VWS V14.01,2013-07-30 13:15:00,
2013-07-30 08:17:00,81.6,79.1,30.01,SSE,149,7.0,8.2,92,0.00,,---,0.00,74.00,VWS V14.01,2013-07-30 13:17:00,
2013-07-30 08:20:00,82.0,79.1,30.01,SE,126,6.0,9.2,91,0.00,,---,0.00,77.00,VWS V14.01,2013-07-30 13:20:00,
2013-07-30 08:22:00,81.8,78.9,30.01,SE,142,6.0,11.2,91,0.00,,---,0.00,83.00,VWS V14.01,2013-07-30 13:22:00,
2013-07-30 08:25:00,82.2,79.3,30.01,SE,143,1.0,11.2,91,0.00,,---,0.00,83.00,VWS V14.01,2013-07-30 13:25:00,
2013-07-30 08:27:00,82.2,79.3,30.01,SE,144,2.0,7.2,91,0.00,,---,0.00,83.00,VWS V14.01,2013-07-30 13:27:00,
2013-07-30 08:30:00,82.4,78.8,30.01,SE,145,5.0,11.2,89,0.00,,---,0.00,83.00,VWS V14.01,2013-07-30 13:30:00,
2013-07-30 08:32:00,82.4,78.8,30.01,SE,144,4.0,8.2,89,0.00,,---,0.00,88.00,VWS V14.01,2013-07-30 13:32:00,
2013-07-30 08:35:00,82.6,79.0,30.01,SE,132,7.0,10.2,89,0.00,,---,0.00,93.00,VWS V14.01,2013-07-30 13:35:00,
2013-07-30 08:37:00,82.6,79.0,30.01,SE,145,4.0,11.2,89,0.00,,---,0.00,97.00,VWS V14.01,2013-07-30 13:37:00,
2013-07-30 08:40:00,83.0,79.1,30.01,SE,144,3.0,11.2,88,0.00,,---,0.00,109.00,VWS V14.01,2013-07-30 13:40:00,
2013-07-30 08:42:00,83.0,79.1,30.01,SSE,163,6.0,10.2,88,0.00,,---,0.00,111.00,VWS V14.01,2013-07-30 13:42:00,
2013-07-30 08:45:00,83.0,79.1,30.01,SE,142,4.0,12.2,88,0.00,,---,0.00,142.00,VWS V14.01,2013-07-30 13:45:00,
2013-07-30 08:47:00,83.0,79.1,30.01,SE,145,5.0,10.2,88,0.00,,---,0.00,148.00,VWS V14.01,2013-07-30 13:47:00,
2013-07-30 08:50:00,83.0,79.1,30.01,SE,141,6.0,12.2,88,0.00,,---,0.00,116.00,VWS V14.01,2013-07-30 13:50:00,
2013-07-30 08:52:00,83.2,79.3,30.01,SE,143,5.0,9.2,88,0.00,,---,0.00,118.00,VWS V14.01,2013-07-30 13:52:00,
2013-07-30 08:55:00,83.2,79.3,30.01,SE,130,3.0,13.2,88,0.00,,---,0.00,118.00,VWS V14.01,2013-07-30 13:55:00,
2013-07-30 08:57:00,83.2,78.9,30.01,SSE,151,7.0,12.2,87,0.00,,---,0.00,120.00,VWS V14.01,2013-07-30 13:57:00,
2013-07-30 09:00:00,83.6,79.3,30.02,SE,124,8.0,13.2,87,0.00,,---,0.00,156.00,VWS V14.01,2013-07-30 14:00:00,
2013-07-30 09:02:00,83.8,79.5,30.02,SE,131,9.0,12.2,87,0.00,,---,0.00,165.00,VWS V14.01,2013-07-30 14:02:00,
2013-07-30 09:05:00,84.1,79.1,30.02,ESE,114,5.0,12.2,85,0.00,,---,0.00,190.00,VWS V14.01,2013-07-30 14:05:00,
2013-07-30 09:07:00,84.1,79.1,30.02,SE,132,6.0,10.2,85,0.00,,---,0.00,214.00,VWS V14.01,2013-07-30 14:07:00,
2013-07-30 09:10:00,84.0,79.0,30.02,SSE,165,11.0,14.2,85,0.00,,---,0.00,262.00,VWS V14.01,2013-07-30 14:10:00,
2013-07-30 09:12:00,84.0,79.0,30.02,South,180,5.0,12.2,85,0.00,,---,0.00,301.00,VWS V14.01,2013-07-30 14:12:00,
2013-07-30 09:15:00,83.8,78.4,30.02,SE,134,4.0,15.2,84,0.00,,---,0.00,352.00,VWS V14.01,2013-07-30 14:15:00,
2013-07-30 09:17:00,84.0,79.0,30.02,SSE,157,3.0,10.2,85,0.00,,---,0.00,352.00,VWS V14.01,2013-07-30 14:17:00,
2013-07-30 09:20:00,84.1,78.8,30.02,SE,134,7.0,11.2,84,0.00,,---,0.00,410.00,VWS V14.01,2013-07-30 14:20:00,
2013-07-30 09:22:00,84.3,78.9,30.02,SE,126,11.0,12.2,84,0.00,,---,0.00,408.00,VWS V14.01,2013-07-30 14:22:00,
2013-07-30 09:25:00,84.5,78.8,30.02,ESE,110,8.0,13.2,83,0.00,,---,0.00,436.00,VWS V14.01,2013-07-30 14:25:00,
2013-07-30 09:27:00,84.5,79.1,30.02,SE,135,7.0,12.2,84,0.00,,---,0.00,445.00,VWS V14.01,2013-07-30 14:27:00,
2013-07-30 09:30:00,84.7,79.0,30.02,SE,133,11.0,15.2,83,0.00,,---,0.00,464.00,VWS V14.01,2013-07-30 14:30:00,
2013-07-30 09:32:00,84.7,79.0,30.02,SE,146,10.0,14.2,83,0.00,,---,0.00,461.00,VWS V14.01,2013-07-30 14:32:00,
2013-07-30 09:35:00,84.5,78.8,30.02,SSE,160,6.0,16.2,83,0.00,,---,0.00,476.00,VWS V14.01,2013-07-30 14:35:00,
2013-07-30 09:37:00,84.5,78.8,30.02,SE,137,10.0,15.2,83,0.00,,---,0.00,499.00,VWS V14.01,2013-07-30 14:37:00,
2013-07-30 09:40:00,84.5,78.8,30.02,SSE,163,6.0,16.2,83,0.00,,---,0.00,490.00,VWS V14.01,2013-07-30 14:40:00,
2013-07-30 09:42:00,84.5,78.8,30.02,SSE,151,6.0,14.2,83,0.00,,---,0.00,494.00,VWS V14.01,2013-07-30 14:42:00,
2013-07-30 09:45:00,85.1,79.4,30.02,SSW,208,9.0,14.2,83,0.00,,---,0.00,510.00,VWS V14.01,2013-07-30 14:45:00,
2013-07-30 09:47:00,85.1,78.6,30.02,SE,146,10.0,16.2,81,0.00,,---,0.00,524.00,VWS V14.01,2013-07-30 14:47:00,
2013-07-30 09:50:00,84.9,78.8,30.02,SE,146,6.0,16.2,82,0.00,,---,0.00,561.00,VWS V14.01,2013-07-30 14:50:00,
2013-07-30 09:52:00,84.9,78.8,30.02,SE,146,4.0,14.2,82,0.00,,---,0.00,561.00,VWS V14.01,2013-07-30 14:52:00,
2013-07-30 09:55:00,84.9,78.4,30.02,SSE,153,5.0,16.2,81,0.00,,---,0.00,552.00,VWS V14.01,2013-07-30 14:55:00,
2013-07-30 09:57:00,84.9,78.8,30.02,SSE,165,4.0,11.2,82,0.00,,---,0.00,610.00,VWS V14.01,2013-07-30 14:57:00,
2013-07-30 10:00:00,85.1,79.0,30.02,SE,126,5.0,16.2,82,0.00,,---,0.00,612.00,VWS V14.01,2013-07-30 15:00:00,
2013-07-30 10:02:00,85.3,78.8,30.02,ESE,120,5.0,11.2,81,0.00,,---,0.00,594.00,VWS V14.01,2013-07-30 15:02:00,
2013-07-30 10:05:00,85.5,79.4,30.02,SE,146,9.0,16.2,82,0.00,,---,0.00,628.00,VWS V14.01,2013-07-30 15:05:00,
2013-07-30 10:07:00,85.5,79.0,30.02,SSE,165,5.0,12.2,81,0.00,,---,0.00,617.00,VWS V14.01,2013-07-30 15:07:00,
2013-07-30 10:10:00,85.5,79.0,30.02,SSE,155,4.0,14.2,81,0.00,,---,0.00,657.00,VWS V14.01,2013-07-30 15:10:00,
2013-07-30 10:12:00,85.5,79.0,30.02,SE,140,11.0,15.2,81,0.00,,---,0.00,642.00,VWS V14.01,2013-07-30 15:12:00,
2013-07-30 10:15:00,85.7,78.8,30.02,South,171,10.0,15.2,80,0.00,,---,0.00,624.00,VWS V14.01,2013-07-30 15:15:00,
2013-07-30 10:17:00,85.7,78.8,30.02,South,176,6.0,13.2,80,0.00,,---,0.00,624.00,VWS V14.01,2013-07-30 15:17:00,
2013-07-30 10:20:00,85.9,79.0,30.02,South,188,6.0,13.2,80,0.00,,---,0.00,557.00,VWS V14.01,2013-07-30 15:20:00,
2013-07-30 10:22:00,86.1,79.2,30.02,SE,139,6.0,10.2,80,0.00,,---,0.00,710.00,VWS V14.01,2013-07-30 15:22:00,
2013-07-30 10:25:00,86.7,79.4,30.02,SW,221,2.0,13.2,79,0.00,,---,0.00,663.00,VWS V14.01,2013-07-30 15:25:00,
2013-07-30 10:27:00,87.0,79.3,30.02,SSE,153,6.0,17.2,78,0.00,,---,0.00,673.00,VWS V14.01,2013-07-30 15:27:00,
2013-07-30 10:30:00,86.3,79.0,30.02,SE,126,8.0,17.2,79,0.00,,---,0.00,684.00,VWS V14.01,2013-07-30 15:30:00,
2013-07-30 10:32:00,86.3,79.0,30.02,South,183,7.0,16.2,79,0.00,,---,0.00,684.00,VWS V14.01,2013-07-30 15:32:00,
2013-07-30 10:35:00,86.1,79.2,30.02,South,186,10.0,16.2,80,0.00,,---,0.00,687.00,VWS V14.01,2013-07-30 15:35:00,
2013-07-30 10:37:00,86.3,79.0,30.02,ESE,108,7.0,12.2,79,0.00,,---,0.00,708.00,VWS V14.01,2013-07-30 15:37:00,
2013-07-30 10:40:00,86.3,79.0,30.02,SSE,165,6.0,15.2,79,0.00,,---,0.00,701.00,VWS V14.01,2013-07-30 15:40:00,
2013-07-30 10:42:00,86.5,79.2,30.02,SE,132,9.0,14.2,79,0.00,,---,0.00,703.00,VWS V14.01,2013-07-30 15:42:00,
2013-07-30 10:45:00,86.7,79.4,30.03,SE,138,8.0,14.2,79,0.00,,---,0.00,701.00,VWS V14.01,2013-07-30 15:45:00,
2013-07-30 10:47:00,86.7,79.0,30.03,SSE,159,14.0,15.2,78,0.00,,---,0.00,698.00,VWS V14.01,2013-07-30 15:47:00,
2013-07-30 10:50:00,86.5,78.8,30.03,SE,138,12.0,18.2,78,0.00,,---,0.00,703.00,VWS V14.01,2013-07-30 15:50:00,
2013-07-30 10:52:00,86.5,78.8,30.03,SSE,156,5.0,14.2,78,0.00,,---,0.00,694.00,VWS V14.01,2013-07-30 15:52:00,
2013-07-30 10:55:00,86.7,78.6,30.03,SSE,159,10.0,16.2,77,0.00,,---,0.00,715.00,VWS V14.01,2013-07-30 15:55:00,
2013-07-30 10:58:00,86.7,78.6,30.03,SSE,153,7.0,21.2,77,0.00,,---,0.00,715.00,VWS V14.01,2013-07-30 15:58:00,
2013-07-30 11:00:00,86.7,78.6,30.03,SE,134,11.0,21.2,77,0.00,,---,0.00,740.00,VWS V14.01,2013-07-30 16:00:00,
2013-07-30 11:02:00,87.0,78.9,30.03,SSE,153,6.0,13.2,77,0.00,,---,0.00,740.00,VWS V14.01,2013-07-30 16:02:00,
2013-07-30 11:05:00,87.6,79.1,30.03,SSE,161,9.0,14.2,76,0.00,,---,0.00,759.00,VWS V14.01,2013-07-30 16:05:00,
2013-07-30 11:08:00,87.6,79.1,30.03,SSE,148,7.0,12.2,76,0.00,,---,0.00,768.00,VWS V14.01,2013-07-30 16:08:00,
2013-07-30 11:10:00,87.2,78.7,30.03,SE,136,10.0,17.2,76,0.00,,---,0.00,777.00,VWS V14.01,2013-07-30 16:10:00,
2013-07-30 11:12:00,87.0,78.9,30.03,SSE,147,10.0,16.2,77,0.00,,---,0.00,782.00,VWS V14.01,2013-07-30 16:12:00,
2013-07-30 11:15:00,87.2,79.1,30.02,SE,144,10.0,16.2,77,0.00,,---,0.00,789.00,VWS V14.01,2013-07-30 16:15:00,
2013-07-30 11:18:00,87.4,79.3,30.02,SSE,159,6.0,17.2,77,0.00,,---,0.00,789.00,VWS V14.01,2013-07-30 16:18:00,
2013-07-30 11:20:00,87.2,79.1,30.02,ESE,119,13.0,17.2,77,0.00,,---,0.00,742.00,VWS V14.01,2013-07-30 16:20:00,
2013-07-30 11:23:00,87.2,79.1,30.02,South,178,2.0,16.2,77,0.00,,---,0.00,770.00,VWS V14.01,2013-07-30 16:23:00,
2013-07-30 11:25:00,87.4,78.9,30.02,SE,139,7.0,16.2,76,0.00,,---,0.00,786.00,VWS V14.01,2013-07-30 16:25:00,
2013-07-30 11:28:00,87.4,78.9,30.02,SSE,153,7.0,13.2,76,0.00,,---,0.00,786.00,VWS V14.01,2013-07-30 16:28:00,
2013-07-30 11:30:00,87.4,78.9,30.03,SE,130,7.0,16.2,76,0.00,,---,0.00,795.00,VWS V14.01,2013-07-30 16:30:00,
2013-07-30 11:33:00,87.4,78.9,30.03,SSE,148,14.0,17.2,76,0.00,,---,0.00,800.00,VWS V14.01,2013-07-30 16:33:00,
2013-07-30 11:35:00,87.6,79.1,30.03,SSE,161,7.0,18.2,76,0.00,,---,0.00,817.00,VWS V14.01,2013-07-30 16:35:00,
2013-07-30 11:37:00,88.0,79.1,30.03,SSE,163,16.0,17.2,75,0.00,,---,0.00,805.00,VWS V14.01,2013-07-30 16:37:00,
2013-07-30 11:40:00,88.4,79.1,30.03,ESE,119,3.0,18.2,74,0.00,,---,0.00,824.00,VWS V14.01,2013-07-30 16:40:00,
2013-07-30 11:42:00,88.4,79.1,30.03,SSE,153,12.0,19.2,74,0.00,,---,0.00,821.00,VWS V14.01,2013-07-30 16:42:00,
2013-07-30 11:45:00,88.0,79.1,30.03,South,184,4.0,19.2,75,0.00,,---,0.00,828.00,VWS V14.01,2013-07-30 16:45:00,
2013-07-30 11:47:00,88.0,79.1,30.03,SSE,165,10.0,14.2,75,0.00,,---,0.00,896.00,VWS V14.01,2013-07-30 16:47:00,
2013-07-30 11:50:00,87.8,78.9,30.03,SE,138,10.0,15.2,75,0.00,,---,0.00,847.00,VWS V14.01,2013-07-30 16:50:00,
2013-07-30 11:52:00,87.8,79.3,30.03,SSE,150,6.0,11.2,76,0.00,,---,0.00,851.00,VWS V14.01,2013-07-30 16:52:00,
2013-07-30 11:55:00,88.0,78.7,30.03,SSE,154,10.0,17.2,74,0.00,,---,0.00,865.00,VWS V14.01,2013-07-30 16:55:00,
2013-07-30 11:57:00,87.8,78.9,30.03,ESE,111,10.0,16.2,75,0.00,,---,0.00,842.00,VWS V14.01,2013-07-30 16:57:00,
2013-07-30 12:00:00,87.6,78.7,30.02,ESE,121,6.0,17.2,75,0.00,,---,0.00,856.00,VWS V14.01,2013-07-30 17:00:00,
2013-07-30 12:02:00,87.8,79.3,30.02,South,177,9.0,15.2,76,0.00,,---,0.00,844.00,VWS V14.01,2013-07-30 17:02:00,
2013-07-30 12:05:00,88.0,78.7,30.02,SSW,202,6.0,15.2,74,0.00,,---,0.00,846.00,VWS V14.01,2013-07-30 17:05:00,
2013-07-30 12:07:00,87.8,78.5,30.02,SSE,152,11.0,18.2,74,0.00,,---,0.00,860.00,VWS V14.01,2013-07-30 17:07:00,
2013-07-30 12:10:00,87.8,78.9,30.02,SE,134,10.0,19.2,75,0.00,,---,0.00,875.00,VWS V14.01,2013-07-30 17:10:00,
2013-07-30 12:13:00,88.0,79.1,30.02,SE,144,13.0,15.2,75,0.00,,---,0.00,877.00,VWS V14.01,2013-07-30 17:13:00,
2013-07-30 12:15:00,88.4,79.1,30.01,SSE,155,7.0,16.2,74,0.00,,---,0.00,875.00,VWS V14.01,2013-07-30 17:15:00,
2013-07-30 12:17:00,88.6,79.2,30.01,SE,145,4.0,11.2,74,0.00,,---,0.00,877.00,VWS V14.01,2013-07-30 17:17:00,
2013-07-30 12:20:00,88.4,79.1,30.01,SSE,157,5.0,16.2,74,0.00,,---,0.00,856.00,VWS V14.01,2013-07-30 17:20:00,
2013-07-30 12:22:00,88.4,78.7,30.01,East,101,14.0,17.2,73,0.00,,---,0.00,867.00,VWS V14.01,2013-07-30 17:22:00,
2013-07-30 12:25:00,88.2,78.9,30.01,SSE,164,4.0,17.2,74,0.00,,---,0.00,881.00,VWS V14.01,2013-07-30 17:25:00,
2013-07-30 12:27:00,88.2,78.4,30.01,SSE,154,15.0,20.2,73,0.00,,---,0.00,875.00,VWS V14.01,2013-07-30 17:27:00,
2013-07-30 12:30:00,87.8,78.5,30.01,ESE,113,13.0,20.2,74,0.00,,---,0.00,875.00,VWS V14.01,2013-07-30 17:30:00,
2013-07-30 12:32:00,88.0,78.7,30.01,SSW,194,10.0,16.2,74,0.00,,---,0.00,882.00,VWS V14.01,2013-07-30 17:32:00,
2013-07-30 12:35:00,87.6,78.3,30.01,SSE,161,15.0,19.2,74,0.00,,---,0.00,879.00,VWS V14.01,2013-07-30 17:35:00,
2013-07-30 12:37:00,87.4,78.5,30.01,SSE,148,14.0,19.2,75,0.00,,---,0.00,872.00,VWS V14.01,2013-07-30 17:37:00,
2013-07-30 12:40:00,88.0,79.1,30.01,SE,136,16.0,19.2,75,0.00,,---,0.00,882.00,VWS V14.01,2013-07-30 17:40:00,
2013-07-30 12:42:00,88.4,78.7,30.01,ESE,119,9.0,17.2,73,0.00,,---,0.00,882.00,VWS V14.01,2013-07-30 17:42:00,
2013-07-30 12:45:00,88.6,78.8,30.01,SSE,156,9.0,18.2,73,0.00,,---,0.00,923.00,VWS V14.01,2013-07-30 17:45:00,
2013-07-30 12:47:00,88.6,78.8,30.01,SSE,148,10.0,17.2,73,0.00,,---,0.00,919.00,VWS V14.01,2013-07-30 17:47:00,
2013-07-30 12:50:00,88.2,78.0,30.01,South,175,13.0,21.2,72,0.00,,---,0.00,935.00,VWS V14.01,2013-07-30 17:50:00,
2013-07-30 12:52:00,88.0,78.3,30.01,SE,141,12.0,17.2,73,0.00,,---,0.00,928.00,VWS V14.01,2013-07-30 17:52:00,
2013-07-30 12:55:00,88.2,78.5,30.01,SE,144,13.0,17.2,73,0.00,,---,0.00,932.00,VWS V14.01,2013-07-30 17:55:00,
2013-07-30 12:58:00,88.2,78.4,30.01,SE,131,12.0,20.2,73,0.00,,---,0.00,946.00,VWS V14.01,2013-07-30 17:58:00,
2013-07-30 13:00:00,88.4,78.7,30.00,SSE,152,7.0,20.2,73,0.00,,---,0.00,951.00,VWS V14.01,2013-07-30 18:00:00,
2013-07-30 13:03:00,88.4,77.8,30.00,SSE,155,8.0,16.2,71,0.00,,---,0.00,937.00,VWS V14.01,2013-07-30 18:03:00,
2013-07-30 13:05:00,89.3,79.5,30.00,SE,146,4.0,16.2,73,0.00,,---,0.00,905.00,VWS V14.01,2013-07-30 18:05:00,
2013-07-30 13:08:00,89.5,78.4,30.00,SSE,166,11.0,18.2,70,0.00,,---,0.00,907.00,VWS V14.01,2013-07-30 18:08:00,
2013-07-30 13:10:00,89.3,78.7,30.00,SSW,194,15.0,18.2,71,0.00,,---,0.00,900.00,VWS V14.01,2013-07-30 18:10:00,
2013-07-30 13:13:00,89.3,78.7,30.00,SSE,150,6.0,16.2,71,0.00,,---,0.00,896.00,VWS V14.01,2013-07-30 18:13:00,
2013-07-30 13:15:00,89.3,78.7,30.00,SSE,152,12.0,20.2,71,0.00,,---,0.00,888.00,VWS V14.01,2013-07-30 18:15:00,
2013-07-30 13:18:00,89.0,79.2,30.00,SSE,148,5.0,16.2,73,0.00,,---,0.00,902.00,VWS V14.01,2013-07-30 18:18:00,
2013-07-30 13:20:00,89.7,79.1,30.00,SE,144,11.0,17.2,71,0.00,,---,0.00,867.00,VWS V14.01,2013-07-30 18:20:00,
2013-07-30 13:23:00,89.5,78.9,30.00,SE,140,11.0,16.2,71,0.00,,---,0.00,879.00,VWS V14.01,2013-07-30 18:23:00,
2013-07-30 13:25:00,88.8,79.0,30.00,ESE,120,14.0,22.2,73,0.00,,---,0.00,891.00,VWS V14.01,2013-07-30 18:25:00,
2013-07-30 13:28:00,89.0,79.6,30.00,ESE,123,10.0,15.2,74,0.00,,---,0.00,877.00,VWS V14.01,2013-07-30 18:28:00,
2013-07-30 13:30:00,88.8,78.6,29.99,SSE,153,16.0,21.2,72,0.00,,---,0.00,881.00,VWS V14.01,2013-07-30 18:30:00,
2013-07-30 13:33:00,88.6,78.4,29.99,SSE,148,15.0,18.2,72,0.00,,---,0.00,904.00,VWS V14.01,2013-07-30 18:33:00,
2013-07-30 13:35:00,88.2,78.5,29.99,ESE,119,13.0,22.2,73,0.00,,---,0.00,918.00,VWS V14.01,2013-07-30 18:35:00,
2013-07-30 13:38:00,88.0,78.7,29.99,SSE,161,15.0,17.2,74,0.00,,---,0.00,909.00,VWS V14.01,2013-07-30 18:38:00,
2013-07-30 13:40:00,88.2,78.0,29.99,SE,132,16.0,22.2,72,0.00,,---,0.00,863.00,VWS V14.01,2013-07-30 18:40:00,
2013-07-30 13:43:00,88.2,78.0,29.99,SE,136,7.0,21.2,72,0.00,,---,0.00,868.00,VWS V14.01,2013-07-30 18:43:00,
2013-07-30 13:45:00,88.4,77.8,29.99,SSE,159,11.0,21.2,71,0.00,,---,0.00,891.00,VWS V14.01,2013-07-30 18:45:00,
2013-07-30 13:48:00,88.4,77.8,29.99,SE,134,20.0,21.2,71,0.00,,---,0.00,879.00,VWS V14.01,2013-07-30 18:48:00,
2013-07-30 13:50:00,88.6,78.0,29.99,SE,138,16.0,21.2,71,0.00,,---,0.00,893.00,VWS V14.01,2013-07-30 18:50:00,
2013-07-30 13:53:00,88.4,78.2,29.99,ESE,117,5.0,19.2,72,0.00,,---,0.00,889.00,VWS V14.01,2013-07-30 18:53:00,
2013-07-30 13:55:00,88.8,78.6,29.99,SSE,155,13.0,20.2,72,0.00,,---,0.00,902.00,VWS V14.01,2013-07-30 18:55:00,
2013-07-30 13:58:00,88.6,78.8,29.99,SSE,150,5.0,21.2,73,0.00,,---,0.00,884.00,VWS V14.01,2013-07-30 18:58:00,
2013-07-30 14:00:00,88.6,78.4,29.99,SE,144,11.0,22.2,72,0.00,,---,0.00,900.00,VWS V14.01,2013-07-30 19:00:00,
2013-07-30 14:03:00,88.6,78.4,29.99,SE,136,4.0,19.2,72,0.00,,---,0.00,902.00,VWS V14.01,2013-07-30 19:03:00,
2013-07-30 14:05:00,89.3,79.1,29.99,SE,146,7.0,19.2,72,0.00,,---,0.00,939.00,VWS V14.01,2013-07-30 19:05:00,
2013-07-30 14:08:00,89.0,77.9,29.99,ESE,123,12.0,19.2,70,0.00,,---,0.00,933.00,VWS V14.01,2013-07-30 19:08:00,
2013-07-30 14:10:00,88.6,78.0,29.99,SE,136,18.0,19.2,71,0.00,,---,0.00,933.00,VWS V14.01,2013-07-30 19:10:00,
2013-07-30 14:13:00,88.6,78.0,29.99,SE,133,12.0,22.2,71,0.00,,---,0.00,912.00,VWS V14.01,2013-07-30 19:13:00,
2013-07-30 14:15:00,88.6,78.0,29.98,ESE,103,10.0,22.2,71,0.00,,---,0.00,921.00,VWS V14.01,2013-07-30 19:15:00,
2013-07-30 14:18:00,88.8,78.2,29.98,SE,137,13.0,20.2,71,0.00,,---,0.00,921.00,VWS V14.01,2013-07-30 19:18:00,
2013-07-30 14:20:00,89.3,78.2,29.98,SSE,162,12.0,20.2,70,0.00,,---,0.00,928.00,VWS V14.01,2013-07-30 19:20:00,
2013-07-30 14:23:00,89.3,78.2,29.98,SSE,152,5.0,22.2,70,0.00,,---,0.00,930.00,VWS V14.01,2013-07-30 19:23:00,
2013-07-30 14:25:00,89.0,78.4,29.98,SSE,153,11.0,22.2,71,0.00,,---,0.00,928.00,VWS V14.01,2013-07-30 19:25:00,
2013-07-30 14:28:00,89.0,77.9,29.98,ESE,117,16.0,17.2,70,0.00,,---,0.00,953.00,VWS V14.01,2013-07-30 19:28:00,
2013-07-30 14:30:00,89.0,77.9,29.98,SSW,203,6.0,19.2,70,0.00,,---,0.00,949.00,VWS V14.01,2013-07-30 19:30:00,
2013-07-30 14:33:00,89.5,78.4,29.98,SE,142,11.0,19.2,70,0.00,,---,0.00,951.00,VWS V14.01,2013-07-30 19:33:00,
2013-07-30 14:35:00,89.0,77.9,29.98,SE,144,12.0,22.2,70,0.00,,---,0.00,944.00,VWS V14.01,2013-07-30 19:35:00,
2013-07-30 14:37:00,88.8,77.8,29.98,SSE,154,14.0,17.2,70,0.00,,---,0.00,942.00,VWS V14.01,2013-07-30 19:37:00,
2013-07-30 14:40:00,88.6,78.4,29.98,SSE,152,13.0,19.2,72,0.00,,---,0.00,932.00,VWS V14.01,2013-07-30 19:40:00,
2013-07-30 14:42:00,88.8,78.2,29.98,SE,128,11.0,16.2,71,0.00,,---,0.00,928.00,VWS V14.01,2013-07-30 19:42:00,
2013-07-30 14:45:00,89.5,78.4,29.97,SSE,154,10.0,21.2,70,0.00,,---,0.00,930.00,VWS V14.01,2013-07-30 19:45:00,
2013-07-30 14:47:00,89.9,78.8,29.97,ESE,117,11.0,15.2,70,0.00,,---,0.00,932.00,VWS V14.01,2013-07-30 19:47:00,
2013-07-30 14:50:00,89.7,77.7,29.97,SSE,162,9.0,21.2,68,0.00,,---,0.00,928.00,VWS V14.01,2013-07-30 19:50:00,
2013-07-30 14:52:00,89.3,78.2,29.97,SSE,154,7.0,18.2,70,0.00,,---,0.00,923.00,VWS V14.01,2013-07-30 19:52:00,
2013-07-30 14:55:00,89.5,78.0,29.97,SE,144,13.0,21.2,69,0.00,,---,0.00,918.00,VWS V14.01,2013-07-30 19:55:00,
2013-07-30 14:57:00,89.5,78.4,29.97,ESE,116,18.0,19.2,70,0.00,,---,0.00,914.00,VWS V14.01,2013-07-30 19:57:00,
2013-07-30 15:00:00,89.3,78.7,29.97,SE,134,16.0,22.2,71,0.00,,---,0.00,912.00,VWS V14.01,2013-07-30 20:00:00,
2013-07-30 15:03:00,89.3,78.2,29.97,SSE,149,10.0,21.2,70,0.00,,---,0.00,916.00,VWS V14.01,2013-07-30 20:03:00,
2013-07-30 15:05:00,89.3,78.2,29.97,SE,128,14.0,21.2,70,0.00,,---,0.00,909.00,VWS V14.01,2013-07-30 20:05:00,
2013-07-30 15:08:00,89.5,78.9,29.97,SE,144,11.0,18.2,71,0.00,,---,0.00,907.00,VWS V14.01,2013-07-30 20:08:00,
2013-07-30 15:10:00,89.3,78.7,29.97,ESE,122,13.0,22.2,71,0.00,,---,0.00,904.00,VWS V14.01,2013-07-30 20:10:00,
2013-07-30 15:13:00,89.7,79.1,29.97,ESE,120,13.0,15.2,71,0.00,,---,0.00,900.00,VWS V14.01,2013-07-30 20:13:00,
2013-07-30 15:15:00,90.1,79.0,29.96,ESE,114,13.0,22.2,70,0.00,,---,0.00,896.00,VWS V14.01,2013-07-30 20:15:00,
2013-07-30 15:18:00,89.9,78.4,29.96,SE,132,11.0,19.2,69,0.00,,---,0.00,891.00,VWS V14.01,2013-07-30 20:18:00,
2013-07-30 15:20:00,89.5,78.4,29.96,SSE,153,14.0,20.2,70,0.00,,---,0.00,879.00,VWS V14.01,2013-07-30 20:20:00,
2013-07-30 15:23:00,89.3,78.2,29.96,SE,134,13.0,20.2,70,0.00,,---,0.00,875.00,VWS V14.01,2013-07-30 20:23:00,
2013-07-30 15:25:00,89.0,77.9,29.96,ESE,123,12.0,22.2,70,0.00,,---,0.00,858.00,VWS V14.01,2013-07-30 20:25:00,
2013-07-30 15:28:00,89.0,78.8,29.96,ESE,119,10.0,17.2,72,0.00,,---,0.00,840.00,VWS V14.01,2013-07-30 20:28:00,
2013-07-30 15:30:00,89.0,78.4,29.96,ESE,118,11.0,20.2,71,0.00,,---,0.00,826.00,VWS V14.01,2013-07-30 20:30:00,
2013-07-30 15:33:00,89.3,79.1,29.96,ESE,123,10.0,15.2,72,0.00,,---,0.00,846.00,VWS V14.01,2013-07-30 20:33:00,
2013-07-30 15:35:00,89.3,79.1,29.96,SSE,167,11.0,20.2,72,0.00,,---,0.00,847.00,VWS V14.01,2013-07-30 20:35:00,
2013-07-30 15:38:00,89.3,78.7,29.96,ESE,115,13.0,14.2,71,0.00,,---,0.00,847.00,VWS V14.01,2013-07-30 20:38:00,
2013-07-30 15:40:00,89.7,78.6,29.96,South,169,7.0,19.2,70,0.00,,---,0.00,837.00,VWS V14.01,2013-07-30 20:40:00,
2013-07-30 15:43:00,89.7,79.1,29.96,ESE,102,14.0,20.2,71,0.00,,---,0.00,838.00,VWS V14.01,2013-07-30 20:43:00,
2013-07-30 15:45:00,89.5,78.4,29.96,East,94,10.0,20.2,70,0.00,,---,0.00,838.00,VWS V14.01,2013-07-30 20:45:00,
2013-07-30 15:48:00,89.5,78.4,29.96,SE,131,17.0,20.2,70,0.00,,---,0.00,817.00,VWS V14.01,2013-07-30 20:48:00,
2013-07-30 15:50:00,88.8,78.2,29.96,SE,139,11.0,20.2,71,0.00,,---,0.00,802.00,VWS V14.01,2013-07-30 20:50:00,
2013-07-30 15:53:00,88.8,78.6,29.96,SE,140,14.0,20.2,72,0.00,,---,0.00,791.00,VWS V14.01,2013-07-30 20:53:00,
2013-07-30 15:55:00,88.6,78.4,29.96,SSE,150,7.0,20.2,72,0.00,,---,0.00,795.00,VWS V14.01,2013-07-30 20:55:00,
2013-07-30 15:58:00,88.4,77.8,29.96,SE,134,15.0,19.2,71,0.00,,---,0.00,789.00,VWS V14.01,2013-07-30 20:58:00,
2013-07-30 16:00:00,88.6,77.6,29.96,SE,134,10.0,21.2,70,0.00,,---,0.00,777.00,VWS V14.01,2013-07-30 21:00:00,
2013-07-30 16:03:00,88.8,78.2,29.96,SSE,149,7.0,19.2,71,0.00,,---,0.00,772.00,VWS V14.01,2013-07-30 21:03:00,
2013-07-30 16:05:00,89.7,78.6,29.96,ESE,105,11.0,19.2,70,0.00,,---,0.00,780.00,VWS V14.01,2013-07-30 21:05:00,
2013-07-30 16:07:00,89.9,78.8,29.96,ESE,112,6.0,19.2,70,0.00,,---,0.00,773.00,VWS V14.01,2013-07-30 21:07:00,
2013-07-30 16:10:00,89.7,78.6,29.96,ESE,102,16.0,21.2,70,0.00,,---,0.00,749.00,VWS V14.01,2013-07-30 21:10:00,
2013-07-30 16:12:00,89.3,78.7,29.96,SE,135,13.0,18.2,71,0.00,,---,0.00,742.00,VWS V14.01,2013-07-30 21:12:00,
2013-07-30 16:15:00,88.4,78.7,29.95,SE,140,13.0,24.2,73,0.00,,---,0.00,728.00,VWS V14.01,2013-07-30 21:15:00,
2013-07-30 16:18:00,88.4,78.2,29.95,ESE,105,9.0,16.2,72,0.00,,---,0.00,721.00,VWS V14.01,2013-07-30 21:18:00,
2013-07-30 16:20:00,88.6,78.4,29.95,SSE,149,13.0,20.2,72,0.00,,---,0.00,684.00,VWS V14.01,2013-07-30 21:20:00,
2013-07-30 16:22:00,88.4,77.8,29.95,ESE,110,14.0,19.2,71,0.00,,---,0.00,661.00,VWS V14.01,2013-07-30 21:22:00,
2013-07-30 16:25:00,88.4,78.7,29.95,ESE,105,11.0,23.2,73,0.00,,---,0.00,668.00,VWS V14.01,2013-07-30 21:25:00,
2013-07-30 16:27:00,88.4,78.7,29.95,SE,140,14.0,18.2,73,0.00,,---,0.00,679.00,VWS V14.01,2013-07-30 21:27:00,
2013-07-30 16:30:00,88.8,78.6,29.95,ESE,115,11.0,21.2,72,0.00,,---,0.00,673.00,VWS V14.01,2013-07-30 21:30:00,
2013-07-30 16:32:00,88.8,78.2,29.95,East,88,10.0,15.2,71,0.00,,---,0.00,675.00,VWS V14.01,2013-07-30 21:32:00,
2013-07-30 16:35:00,89.3,79.1,29.95,SE,134,15.0,19.2,72,0.00,,---,0.00,687.00,VWS V14.01,2013-07-30 21:35:00,
2013-07-30 16:38:00,89.3,78.7,29.95,East,100,17.0,25.2,71,0.00,,---,0.00,691.00,VWS V14.01,2013-07-30 21:38:00,
2013-07-30 16:40:00,88.4,78.2,29.95,ESE,113,13.0,25.2,72,0.00,,---,0.00,677.00,VWS V14.01,2013-07-30 21:40:00,
2013-07-30 16:43:00,88.4,78.7,29.95,East,101,8.0,15.2,73,0.00,,---,0.00,691.00,VWS V14.01,2013-07-30 21:43:00,
2013-07-30 16:45:00,88.4,78.7,29.95,ESE,109,17.0,20.2,73,0.00,,---,0.00,675.00,VWS V14.01,2013-07-30 21:45:00,
2013-07-30 16:48:00,88.2,78.4,29.95,SE,134,15.0,18.2,73,0.00,,---,0.00,633.00,VWS V14.01,2013-07-30 21:48:00,
2013-07-30 16:50:00,88.0,77.8,29.95,ESE,113,13.0,19.2,72,0.00,,---,0.00,629.00,VWS V14.01,2013-07-30 21:50:00,
2013-07-30 16:53:00,88.0,78.3,29.95,ESE,119,10.0,16.2,73,0.00,,---,0.00,643.00,VWS V14.01,2013-07-30 21:53:00,
2013-07-30 16:55:00,87.8,78.5,29.95,SE,134,12.0,24.2,74,0.00,,---,0.00,582.00,VWS V14.01,2013-07-30 21:55:00,
2013-07-30 16:58:00,88.0,78.7,29.95,East,96,16.0,20.2,74,0.00,,---,0.00,631.00,VWS V14.01,2013-07-30 21:58:00,
2013-07-30 17:00:00,88.2,78.5,29.95,SSE,148,23.0,24.2,73,0.00,,---,0.00,527.00,VWS V14.01,2013-07-30 22:00:00,
2013-07-30 17:03:00,88.0,78.7,29.95,East,92,10.0,24.2,74,0.00,,---,0.00,564.00,VWS V14.01,2013-07-30 22:03:00,
2013-07-30 17:05:00,87.4,78.5,29.95,ESE,123,11.0,24.2,75,0.00,,---,0.00,489.00,VWS V14.01,2013-07-30 22:05:00,
2013-07-30 17:08:00,87.4,78.9,29.95,ESE,120,12.0,19.2,76,0.00,,---,0.00,492.00,VWS V14.01,2013-07-30 22:08:00,
2013-07-30 17:10:00,87.0,79.3,29.95,SSE,157,11.0,22.2,78,0.00,,---,0.00,529.00,VWS V14.01,2013-07-30 22:10:00,
2013-07-30 17:13:00,87.0,78.1,29.95,SE,124,16.0,21.2,75,0.00,,---,0.00,568.00,VWS V14.01,2013-07-30 22:13:00,
2013-07-30 17:15:00,87.0,78.5,29.95,ESE,117,14.0,21.2,76,0.00,,---,0.00,561.00,VWS V14.01,2013-07-30 22:15:00,
2013-07-30 17:18:00,86.7,78.2,29.95,East,88,16.0,23.2,76,0.00,,---,0.00,543.00,VWS V14.01,2013-07-30 22:18:00,
2013-07-30 17:20:00,86.7,78.6,29.95,ESE,123,4.0,23.2,77,0.00,,---,0.00,557.00,VWS V14.01,2013-07-30 22:20:00,
2013-07-30 17:23:00,87.2,79.1,29.95,SE,124,10.0,13.2,77,0.00,,---,0.00,582.00,VWS V14.01,2013-07-30 22:23:00,
2013-07-30 17:25:00,87.6,78.7,29.95,ESE,123,10.0,22.2,75,0.00,,---,0.00,524.00,VWS V14.01,2013-07-30 22:25:00,
2013-07-30 17:28:00,87.6,79.1,29.95,ESE,118,13.0,19.2,76,0.00,,---,0.00,483.00,VWS V14.01,2013-07-30 22:28:00,
2013-07-30 17:30:00,87.8,79.3,29.95,SE,132,13.0,23.2,76,0.00,,---,0.00,520.00,VWS V14.01,2013-07-30 22:30:00,
2013-07-30 17:33:00,87.4,78.9,29.95,SSE,154,11.0,20.2,76,0.00,,---,0.00,540.00,VWS V14.01,2013-07-30 22:33:00,
2013-07-30 17:35:00,87.2,78.7,29.95,East,91,6.0,24.2,76,0.00,,---,0.00,527.00,VWS V14.01,2013-07-30 22:35:00,
2013-07-30 17:38:00,87.2,78.7,29.95,SE,129,7.0,17.2,76,0.00,,---,0.00,506.00,VWS V14.01,2013-07-30 22:38:00,
2013-07-30 17:40:00,87.4,78.9,29.95,ESE,123,6.0,18.2,76,0.00,,---,0.00,497.00,VWS V14.01,2013-07-30 22:40:00,
2013-07-30 17:43:00,87.2,78.7,29.95,SE,138,8.0,22.2,76,0.00,,---,0.00,490.00,VWS V14.01,2013-07-30 22:43:00,
2013-07-30 17:45:00,87.2,79.1,29.94,SE,128,13.0,22.2,77,0.00,,---,0.00,454.00,VWS V14.01,2013-07-30 22:45:00,
2013-07-30 17:48:00,87.2,78.7,29.94,ESE,123,13.0,21.2,76,0.00,,---,0.00,445.00,VWS V14.01,2013-07-30 22:48:00,
2013-07-30 17:50:00,87.2,78.7,29.94,SE,132,6.0,21.2,76,0.00,,---,0.00,452.00,VWS V14.01,2013-07-30 22:50:00,
2013-07-30 17:53:00,87.2,78.7,29.94,East,86,10.0,19.2,76,0.00,,---,0.00,448.00,VWS V14.01,2013-07-30 22:53:00,
2013-07-30 17:55:00,87.0,78.9,29.94,SE,128,21.0,22.2,77,0.00,,---,0.00,448.00,VWS V14.01,2013-07-30 22:55:00,
2013-07-30 17:58:00,86.5,78.4,29.94,SSE,155,16.0,22.2,77,0.00,,---,0.00,439.00,VWS V14.01,2013-07-30 22:58:00,
2013-07-30 18:00:00,86.5,78.4,29.94,SE,134,16.0,24.2,77,0.00,,---,0.00,418.00,VWS V14.01,2013-07-30 23:00:00,
2013-07-30 18:03:00,86.3,78.6,29.94,SE,132,12.0,22.2,78,0.00,,---,0.00,422.00,VWS V14.01,2013-07-30 23:03:00,
2013-07-30 18:05:00,86.1,78.4,29.94,SSE,153,13.0,22.2,78,0.00,,---,0.00,413.00,VWS V14.01,2013-07-30 23:05:00,
2013-07-30 18:08:00,86.1,78.4,29.94,SE,138,14.0,21.2,78,0.00,,---,0.00,403.00,VWS V14.01,2013-07-30 23:08:00,
2013-07-30 18:10:00,86.1,78.8,29.94,SE,128,12.0,21.2,79,0.00,,---,0.00,392.00,VWS V14.01,2013-07-30 23:10:00,
2013-07-30 18:13:00,86.1,78.4,29.94,SE,127,14.0,20.2,78,0.00,,---,0.00,387.00,VWS V14.01,2013-07-30 23:13:00,
2013-07-30 18:15:00,86.3,79.0,29.94,SE,126,6.0,21.2,79,0.00,,---,0.00,371.00,VWS V14.01,2013-07-30 23:15:00,
2013-07-30 18:18:00,86.5,78.8,29.94,ESE,115,12.0,18.2,78,0.00,,---,0.00,369.00,VWS V14.01,2013-07-30 23:18:00,
2013-07-30 18:20:00,86.3,78.6,29.94,SE,133,21.0,24.2,78,0.00,,---,0.00,355.00,VWS V14.01,2013-07-30 23:20:00,
2013-07-30 18:23:00,86.1,78.4,29.94,SE,137,12.0,22.2,78,0.00,,---,0.00,353.00,VWS V14.01,2013-07-30 23:23:00,
2013-07-30 18:25:00,85.7,78.4,29.94,SE,138,16.0,22.2,79,0.00,,---,0.00,336.00,VWS V14.01,2013-07-30 23:25:00,
2013-07-30 18:28:00,85.7,78.4,29.94,SSE,147,10.0,18.2,79,0.00,,---,0.00,329.00,VWS V14.01,2013-07-30 23:28:00,
2013-07-30 18:30:00,85.7,78.4,29.94,ESE,117,13.0,26.2,79,0.00,,---,0.00,315.00,VWS V14.01,2013-07-30 23:30:00,
2013-07-30 18:33:00,85.7,78.4,29.94,SE,139,7.0,20.2,79,0.00,,---,0.00,306.00,VWS V14.01,2013-07-30 23:33:00,
2013-07-30 18:35:00,85.7,78.4,29.94,SE,138,18.0,22.2,79,0.00,,---,0.00,297.00,VWS V14.01,2013-07-30 23:35:00,
2013-07-30 18:38:00,85.7,78.4,29.94,SE,136,16.0,19.2,79,0.00,,---,0.00,283.00,VWS V14.01,2013-07-30 23:38:00,
2013-07-30 18:40:00,85.5,78.2,29.94,SE,138,11.0,19.2,79,0.00,,---,0.00,276.00,VWS V14.01,2013-07-30 23:40:00,
2013-07-30 18:43:00,85.7,78.4,29.94,SE,142,9.0,21.2,79,0.00,,---,0.00,269.00,VWS V14.01,2013-07-30 23:43:00,
2013-07-30 18:45:00,85.9,78.2,29.94,ESE,123,18.0,21.2,78,0.00,,---,0.00,253.00,VWS V14.01,2013-07-30 23:45:00,
2013-07-30 18:48:00,85.9,78.2,29.94,SE,134,13.0,19.2,78,0.00,,---,0.00,244.00,VWS V14.01,2013-07-30 23:48:00,
2013-07-30 18:50:00,85.7,78.4,29.94,SSE,150,11.0,22.2,79,0.00,,---,0.00,227.00,VWS V14.01,2013-07-30 23:50:00,
2013-07-30 18:53:00,85.7,78.4,29.94,SSE,155,12.0,21.2,79,0.00,,---,0.00,213.00,VWS V14.01,2013-07-30 23:53:00,
2013-07-30 18:55:00,85.3,78.1,29.94,SE,131,14.0,22.2,79,0.00,,---,0.00,178.00,VWS V14.01,2013-07-30 23:55:00,
2013-07-30 18:58:00,85.1,78.2,29.94,ESE,115,9.0,17.2,80,0.00,,---,0.00,183.00,VWS V14.01,2013-07-30 23:58:00,
2013-07-30 19:00:00,84.9,78.4,29.94,SE,136,10.0,20.2,81,0.00,,---,0.00,174.00,VWS V14.01,2013-07-31 00:00:00,
2013-07-30 19:03:00,84.9,78.4,29.94,SSE,151,5.0,18.2,81,0.00,,---,0.00,174.00,VWS V14.01,2013-07-31 00:03:00,
2013-07-30 19:05:00,84.7,78.2,29.94,SE,144,9.0,20.2,81,0.00,,---,0.00,169.00,VWS V14.01,2013-07-31 00:05:00,
2013-07-30 19:08:00,84.7,78.2,29.94,ESE,123,9.0,19.2,81,0.00,,---,0.00,165.00,VWS V14.01,2013-07-31 00:08:00,
2013-07-30 19:10:00,84.5,78.0,29.94,ESE,116,11.0,21.2,81,0.00,,---,0.00,142.00,VWS V14.01,2013-07-31 00:10:00,
2013-07-30 19:13:00,84.5,78.0,29.94,SE,137,10.0,15.2,81,0.00,,---,0.00,130.00,VWS V14.01,2013-07-31 00:13:00,
2013-07-30 19:15:00,84.7,78.2,29.95,ESE,113,7.0,21.2,81,0.00,,---,0.00,118.00,VWS V14.01,2013-07-31 00:15:00,
2013-07-30 19:18:00,84.7,78.2,29.95,ESE,121,15.0,16.2,81,0.00,,---,0.00,118.00,VWS V14.01,2013-07-31 00:18:00,
2013-07-30 19:20:00,84.7,78.2,29.95,ESE,123,21.0,23.2,81,0.00,,---,0.00,97.00,VWS V14.01,2013-07-31 00:20:00,
2013-07-30 19:23:00,84.5,78.0,29.95,SE,130,13.0,22.2,81,0.00,,---,0.00,88.00,VWS V14.01,2013-07-31 00:23:00,
2013-07-30 19:25:00,84.3,78.6,29.95,SSE,147,9.0,22.2,83,0.00,,---,0.00,70.00,VWS V14.01,2013-07-31 00:25:00,
2013-07-30 19:28:00,84.3,78.2,29.95,ESE,119,9.0,14.2,82,0.00,,---,0.00,70.00,VWS V14.01,2013-07-31 00:28:00,
2013-07-30 19:30:00,84.1,78.4,29.95,ESE,121,17.0,18.2,83,0.00,,---,0.00,62.00,VWS V14.01,2013-07-31 00:30:00,
2013-07-30 19:33:00,84.1,78.4,29.95,SE,137,8.0,18.2,83,0.00,,---,0.00,58.00,VWS V14.01,2013-07-31 00:33:00,
2013-07-30 19:35:00,84.1,78.4,29.95,SSE,149,6.0,19.2,83,0.00,,---,0.00,58.00,VWS V14.01,2013-07-31 00:35:00,
2013-07-30 19:38:00,84.1,78.4,29.95,SE,136,13.0,14.2,83,0.00,,---,0.00,47.00,VWS V14.01,2013-07-31 00:38:00,
2013-07-30 19:40:00,84.0,78.3,29.95,SSE,151,7.0,17.2,83,0.00,,---,0.00,32.00,VWS V14.01,2013-07-31 00:40:00,
2013-07-30 19:43:00,84.0,78.7,29.95,SE,139,10.0,14.2,84,0.00,,---,0.00,26.00,VWS V14.01,2013-07-31 00:43:00,
2013-07-30 19:45:00,84.1,78.4,29.95,SE,128,10.0,17.2,83,0.00,,---,0.00,21.00,VWS V14.01,2013-07-31 00:45:00,
2013-07-30 19:48:00,84.1,78.8,29.95,SE,144,11.0,15.2,84,0.00,,---,0.00,19.00,VWS V14.01,2013-07-31 00:48:00,
2013-07-30 19:50:00,83.8,78.4,29.95,ESE,115,12.0,18.2,84,0.00,,---,0.00,21.00,VWS V14.01,2013-07-31 00:50:00,
2013-07-30 19:53:00,83.6,78.3,29.95,SE,132,11.0,18.2,84,0.00,,---,0.00,21.00,VWS V14.01,2013-07-31 00:53:00,
2013-07-30 19:55:00,83.4,78.4,29.95,SE,142,9.0,18.2,85,0.00,,---,0.00,19.00,VWS V14.01,2013-07-31 00:55:00,
2013-07-30 19:58:00,83.2,78.2,29.95,SE,143,10.0,12.2,85,0.00,,---,0.00,18.00,VWS V14.01,2013-07-31 00:58:00,
2013-07-30 20:00:00,83.2,78.6,29.95,SSE,159,19.0,20.2,86,0.00,,---,0.00,12.00,VWS V14.01,2013-07-31 01:00:00,
2013-07-30 20:02:00,83.0,78.4,29.95,SSE,156,11.0,20.2,86,0.00,,---,0.00,11.00,VWS V14.01,2013-07-31 01:02:00,
2013-07-30 20:05:00,82.8,78.2,29.95,SE,131,10.0,20.2,86,0.00,,---,0.00,9.00,VWS V14.01,2013-07-31 01:05:00,
2013-07-30 20:08:00,82.8,78.2,29.95,SE,132,17.0,18.2,86,0.00,,---,0.00,7.00,VWS V14.01,2013-07-31 01:08:00,
2013-07-30 20:10:00,82.8,78.2,29.95,SE,140,6.0,18.2,86,0.00,,---,0.00,5.00,VWS V14.01,2013-07-31 01:10:00,
2013-07-30 20:12:00,82.8,78.2,29.95,SE,132,15.0,16.2,86,0.00,,---,0.00,5.00,VWS V14.01,2013-07-31 01:12:00,
2013-07-30 20:15:00,82.8,77.8,29.95,SE,130,11.0,17.2,85,0.00,,---,0.00,0.00,VWS V14.01,2013-07-31 01:15:00,
2013-07-30 20:17:00,83.0,78.0,29.95,SE,124,12.0,18.2,85,0.00,,---,0.00,0.00,VWS V14.01,2013-07-31 01:17:00,
2013-07-30 20:20:00,82.8,77.8,29.95,SE,146,6.0,18.2,85,0.00,,---,0.00,0.00,VWS V14.01,2013-07-31 01:20:00,
2013-07-30 20:22:00,82.6,77.6,29.95,SSE,148,3.0,17.2,85,0.00,,---,0.00,0.00,VWS V14.01,2013-07-31 01:22:00,
2013-07-30 20:25:00,82.6,77.6,29.95,ESE,115,11.0,20.2,85,0.00,,---,0.00,0.00,VWS V14.01,2013-07-31 01:25:00,
2013-07-30 20:27:00,82.4,77.4,29.95,ESE,122,14.0,16.2,85,0.00,,---,0.00,0.00,VWS V14.01,2013-07-31 01:27:00,
2013-07-30 20:30:00,82.6,77.6,29.95,SSE,165,9.0,18.2,85,0.00,,---,0.00,0.00,VWS V14.01,2013-07-31 01:30:00,
2013-07-30 20:32:00,82.6,77.6,29.95,SSE,153,10.0,11.2,85,0.00,,---,0.00,0.00,VWS V14.01,2013-07-31 01:32:00,
2013-07-30 20:35:00,82.6,77.6,29.95,SSE,148,6.0,17.2,85,0.00,,---,0.00,0.00,VWS V14.01,2013-07-31 01:35:00,
2013-07-30 20:37:00,82.6,77.6,29.95,SSE,153,11.0,18.2,85,0.00,,---,0.00,0.00,VWS V14.01,2013-07-31 01:37:00,
2013-07-30 20:40:00,82.8,77.8,29.95,ESE,123,11.0,18.2,85,0.00,,---,0.00,0.00,VWS V14.01,2013-07-31 01:40:00,
2013-07-30 20:42:00,82.6,77.6,29.95,SE,139,8.0,17.2,85,0.00,,---,0.00,0.00,VWS V14.01,2013-07-31 01:42:00,
2013-07-30 20:45:00,83.0,77.7,29.95,SE,144,11.0,17.2,84,0.00,,---,0.00,0.00,VWS V14.01,2013-07-31 01:45:00,
2013-07-30 20:47:00,83.0,77.7,29.95,SSE,160,15.0,16.2,84,0.00,,---,0.00,0.00,VWS V14.01,2013-07-31 01:47:00,
2013-07-30 20:50:00,82.8,77.5,29.95,SE,142,11.0,18.2,84,0.00,,---,0.00,0.00,VWS V14.01,2013-07-31 01:50:00,
2013-07-30 20:52:00,82.8,77.8,29.95,SE,142,6.0,15.2,85,0.00,,---,0.00,0.00,VWS V14.01,2013-07-31 01:52:00,
2013-07-30 20:55:00,82.4,77.4,29.95,SE,137,7.0,18.2,85,0.00,,---,0.00,0.00,VWS V14.01,2013-07-31 01:55:00,
2013-07-30 20:58:00,82.4,77.8,29.95,SSE,148,9.0,11.2,86,0.00,,---,0.00,0.00,VWS V14.01,2013-07-31 01:58:00,
2013-07-30 21:00:00,82.2,77.6,29.96,SE,139,6.0,14.2,86,0.00,,---,0.00,0.00,VWS V14.01,2013-07-31 02:00:00,
2013-07-30 21:02:00,82.2,77.6,29.96,SSE,153,13.0,16.2,86,0.00,,---,0.00,0.00,VWS V14.01,2013-07-31 02:02:00,
2013-07-30 21:05:00,82.0,77.4,29.96,SSE,149,6.0,16.2,86,0.00,,---,0.00,0.00,VWS V14.01,2013-07-31 02:05:00,
2013-07-30 21:07:00,82.0,77.8,29.96,SE,136,13.0,15.2,87,0.00,,---,0.00,0.00,VWS V14.01,2013-07-31 02:07:00,
2013-07-30 21:10:00,82.0,77.8,29.96,SE,144,11.0,16.2,87,0.00,,---,0.00,0.00,VWS V14.01,2013-07-31 02:10:00,
2013-07-30 21:12:00,82.0,77.8,29.96,SSE,147,5.0,12.2,87,0.00,,---,0.00,0.00,VWS V14.01,2013-07-31 02:12:00,
2013-07-30 21:15:00,82.0,77.8,29.96,SE,126,9.0,17.2,87,0.00,,---,0.00,0.00,VWS V14.01,2013-07-31 02:15:00,
2013-07-30 21:17:00,82.0,77.8,29.96,ESE,123,13.0,14.2,87,0.00,,---,0.00,0.00,VWS V14.01,2013-07-31 02:17:00,
2013-07-30 21:20:00,82.2,77.6,29.96,SE,139,6.0,16.2,86,0.00,,---,0.00,0.00,VWS V14.01,2013-07-31 02:20:00,
2013-07-30 21:22:00,82.4,77.8,29.96,SSE,156,12.0,14.2,86,0.00,,---,0.00,0.00,VWS V14.01,2013-07-31 02:22:00,
2013-07-30 21:25:00,82.0,77.8,29.96,SSE,150,12.0,16.2,87,0.00,,---,0.00,0.00,VWS V14.01,2013-07-31 02:25:00,
2013-07-30 21:27:00,82.0,77.8,29.96,SE,139,7.0,16.2,87,0.00,,---,0.00,0.00,VWS V14.01,2013-07-31 02:27:00,
2013-07-30 21:30:00,81.8,77.6,29.96,SSE,152,11.0,18.2,87,0.00,,---,0.00,0.00,VWS V14.01,2013-07-31 02:30:00,
2013-07-30 21:32:00,81.8,77.6,29.96,SSE,152,10.0,13.2,87,0.00,,---,0.00,0.00,VWS V14.01,2013-07-31 02:32:00,
2013-07-30 21:35:00,81.8,77.9,29.96,SE,134,10.0,16.2,88,0.00,,---,0.00,0.00,VWS V14.01,2013-07-31 02:35:00,
2013-07-30 21:37:00,81.8,77.9,29.96,SE,141,2.0,12.2,88,0.00,,---,0.00,0.00,VWS V14.01,2013-07-31 02:37:00,
2013-07-30 21:40:00,81.8,77.6,29.96,SE,128,7.0,15.2,87,0.00,,---,0.00,0.00,VWS V14.01,2013-07-31 02:40:00,
2013-07-30 21:42:00,82.0,77.8,29.96,SE,135,6.0,15.2,87,0.00,,---,0.00,0.00,VWS V14.01,2013-07-31 02:42:00,
2013-07-30 21:45:00,82.0,77.8,29.97,SSE,160,2.0,15.2,87,0.00,,---,0.00,0.00,VWS V14.01,2013-07-31 02:45:00,
2013-07-30 21:47:00,82.0,77.8,29.97,SE,140,5.0,11.2,87,0.00,,---,0.00,0.00,VWS V14.01,2013-07-31 02:47:00,
2013-07-30 21:50:00,82.2,77.6,29.97,SE,134,5.0,15.2,86,0.00,,---,0.00,0.00,VWS V14.01,2013-07-31 02:50:00,
2013-07-30 21:52:00,82.4,77.8,29.97,SSE,147,10.0,15.2,86,0.00,,---,0.00,0.00,VWS V14.01,2013-07-31 02:52:00,
2013-07-30 21:55:00,82.4,77.8,29.97,SSE,159,7.0,16.2,86,0.00,,---,0.00,0.00,VWS V14.01,2013-07-31 02:55:00,
2013-07-30 21:57:00,82.4,77.8,29.97,SSE,148,10.0,13.2,86,0.00,,---,0.00,0.00,VWS V14.01,2013-07-31 02:57:00,
2013-07-30 22:00:00,82.0,77.4,29.97,SE,131,14.0,17.2,86,0.00,,---,0.00,0.00,VWS V14.01,2013-07-31 03:00:00,
2013-07-30 22:02:00,82.0,77.8,29.97,SE,126,5.0,15.2,87,0.00,,---,0.00,0.00,VWS V14.01,2013-07-31 03:02:00,
2013-07-30 22:05:00,81.8,77.6,29.97,SE,134,7.0,15.2,87,0.00,,---,0.00,0.00,VWS V14.01,2013-07-31 03:05:00,
2013-07-30 22:07:00,81.6,77.7,29.97,SE,127,1.0,10.2,88,0.00,,---,0.00,0.00,VWS V14.01,2013-07-31 03:07:00,
2013-07-30 22:10:00,81.6,77.7,29.97,SSE,158,4.0,13.2,88,0.00,,---,0.00,0.00,VWS V14.01,2013-07-31 03:10:00,
2013-07-30 22:12:00,81.6,77.7,29.97,South,169,5.0,10.2,88,0.00,,---,0.00,0.00,VWS V14.01,2013-07-31 03:12:00,
2013-07-30 22:15:00,81.6,77.7,29.98,ESE,115,5.0,12.2,88,0.00,,---,0.00,0.00,VWS V14.01,2013-07-31 03:15:00,
2013-07-30 22:18:00,81.6,77.7,29.98,SE,132,9.0,10.2,88,0.00,,---,0.00,0.00,VWS V14.01,2013-07-31 03:18:00,
2013-07-30 22:20:00,81.4,77.5,29.98,SE,144,7.0,12.2,88,0.00,,---,0.00,0.00,VWS V14.01,2013-07-31 03:20:00,
2013-07-30 22:23:00,81.4,77.5,29.98,SE,140,11.0,12.2,88,0.00,,---,0.00,0.00,VWS V14.01,2013-07-31 03:23:00,
2013-07-30 22:25:00,81.6,77.7,29.98,SSE,150,3.0,14.2,88,0.00,,---,0.00,0.00,VWS V14.01,2013-07-31 03:25:00,
2013-07-30 22:27:00,81.6,77.7,29.98,SE,126,5.0,9.2,88,0.00,,---,0.00,0.00,VWS V14.01,2013-07-31 03:27:00,
2013-07-30 22:30:00,81.6,77.7,29.98,SE,144,9.0,13.2,88,0.00,,---,0.00,0.00,VWS V14.01,2013-07-31 03:30:00,
2013-07-30 22:33:00,81.6,77.7,29.98,SE,134,9.0,14.2,88,0.00,,---,0.00,0.00,VWS V14.01,2013-07-31 03:33:00,
2013-07-30 22:35:00,81.4,77.5,29.98,SE,138,9.0,14.2,88,0.00,,---,0.00,0.00,VWS V14.01,2013-07-31 03:35:00,
2013-07-30 22:38:00,81.4,77.5,29.98,SE,136,9.0,12.2,88,0.00,,---,0.00,0.00,VWS V14.01,2013-07-31 03:38:00,
2013-07-30 22:40:00,81.2,77.3,29.98,SE,132,8.0,12.2,88,0.00,,---,0.00,0.00,VWS V14.01,2013-07-31 03:40:00,
2013-07-30 22:42:00,81.2,77.3,29.98,SSE,154,10.0,13.2,88,0.00,,---,0.00,0.00,VWS V14.01,2013-07-31 03:42:00,
2013-07-30 22:45:00,81.2,77.7,29.98,SSE,147,9.0,13.2,89,0.00,,---,0.00,0.00,VWS V14.01,2013-07-31 03:45:00,
2013-07-30 22:47:00,81.4,77.8,29.98,SSE,151,5.0,10.2,89,0.00,,---,0.00,0.00,VWS V14.01,2013-07-31 03:47:00,
2013-07-30 22:50:00,81.4,77.5,29.98,SE,130,4.0,13.2,88,0.00,,---,0.00,0.00,VWS V14.01,2013-07-31 03:50:00,
2013-07-30 22:52:00,81.4,77.5,29.98,SSE,158,4.0,9.2,88,0.00,,---,0.00,0.00,VWS V14.01,2013-07-31 03:52:00,
2013-07-30 22:55:00,81.4,77.5,29.98,SSE,153,9.0,11.2,88,0.00,,---,0.00,0.00,VWS V14.01,2013-07-31 03:55:00,
2013-07-30 22:57:00,81.4,77.5,29.98,ESE,118,2.0,13.2,88,0.00,,---,0.00,0.00,VWS V14.01,2013-07-31 03:57:00,
2013-07-30 23:00:00,81.6,77.7,29.98,SE,146,6.0,14.2,88,0.00,,---,0.00,0.00,VWS V14.01,2013-07-31 04:00:00,
2013-07-30 23:01:00,81.6,77.7,29.99,SE,145,6.0,14.2,88,0.00,,---,0.00,0.00,VWS V14.01,2013-07-31 04:01:00,
2013-07-30 23:02:00,81.8,77.9,29.99,SSE,152,11.0,12.2,88,0.00,,---,0.00,0.00,VWS V14.01,2013-07-31 04:02:00,
2013-07-30 23:05:00,81.8,77.9,29.98,SE,146,5.0,16.2,88,0.00,,---,0.00,0.00,VWS V14.01,2013-07-31 04:05:00,
2013-07-30 23:07:00,81.8,77.9,29.99,SE,142,3.0,7.2,88,0.00,,---,0.00,0.00,VWS V14.01,2013-07-31 04:07:00,
2013-07-30 23:10:00,81.6,77.7,29.98,SE,138,2.0,14.2,88,0.00,,---,0.00,0.00,VWS V14.01,2013-07-31 04:10:00,
2013-07-30 23:12:00,81.4,77.5,29.99,SSE,153,9.0,13.2,88,0.00,,---,0.00,0.00,VWS V14.01,2013-07-31 04:12:00,
2013-07-30 23:15:00,81.2,77.3,29.98,SE,146,5.0,14.2,88,0.00,,---,0.00,0.00,VWS V14.01,2013-07-31 04:15:00,
2013-07-30 23:17:00,81.2,77.3,29.99,SE,142,12.0,13.2,88,0.00,,---,0.00,0.00,VWS V14.01,2013-07-31 04:17:00,
2013-07-30 23:20:00,81.2,77.7,29.98,SE,133,10.0,15.2,89,0.00,,---,0.00,0.00,VWS V14.01,2013-07-31 04:20:00,
2013-07-30 23:22:00,81.1,77.6,29.99,SE,133,7.0,12.2,89,0.00,,---,0.00,0.00,VWS V14.01,2013-07-31 04:22:00,
2013-07-30 23:25:00,81.1,77.6,29.98,SSE,159,5.0,13.2,89,0.00,,---,0.00,0.00,VWS V14.01,2013-07-31 04:25:00,
2013-07-30 23:27:00,81.1,77.6,29.99,SE,136,10.0,15.2,89,0.00,,---,0.00,0.00,VWS V14.01,2013-07-31 04:27:00,
2013-07-30 23:30:00,81.1,77.6,29.99,SE,142,4.0,15.2,89,0.00,,---,0.00,0.00,VWS V14.01,2013-07-31 04:30:00,
2013-07-30 23:32:00,81.1,77.6,29.99,SSE,153,4.0,9.2,89,0.00,,---,0.00,0.00,VWS V14.01,2013-07-31 04:32:00,
2013-07-30 23:35:00,80.9,77.7,29.99,SE,128,6.0,12.2,90,0.00,,---,0.00,0.00,VWS V14.01,2013-07-31 04:35:00,
2013-07-30 23:37:00,80.9,77.7,29.99,SE,132,3.0,10.2,90,0.00,,---,0.00,0.00,VWS V14.01,2013-07-31 04:37:00,
2013-07-30 23:40:00,81.2,77.7,29.99,ESE,113,4.0,15.2,89,0.00,,---,0.00,0.00,VWS V14.01,2013-07-31 04:40:00,
2013-07-30 23:42:00,81.2,77.7,29.99,South,178,6.0,10.2,89,0.00,,---,0.00,0.00,VWS V14.01,2013-07-31 04:42:00,
2013-07-30 23:45:00,81.1,77.6,29.99,SE,139,4.0,12.2,89,0.00,,---,0.00,0.00,VWS V14.01,2013-07-31 04:45:00,
2013-07-30 23:47:00,81.1,77.6,29.99,SE,142,8.0,11.2,89,0.00,,---,0.00,0.00,VWS V14.01,2013-07-31 04:47:00,
2013-07-30 23:50:00,80.9,77.4,29.99,SE,127,6.0,16.2,89,0.00,,---,0.00,0.00,VWS V14.01,2013-07-31 04:50:00,
2013-07-30 23:52:00,81.1,77.6,29.99,SE,125,4.0,7.2,89,0.00,,---,0.00,0.00,VWS V14.01,2013-07-31 04:52:00,
2013-07-30 23:55:00,80.9,77.7,29.99,SE,140,10.0,16.2,90,0.00,,---,0.00,0.00,VWS V14.01,2013-07-31 04:55:00,
2013-07-30 23:57:00,80.9,77.7,29.99,SE,146,5.0,11.2,90,0.00,,---,0.00,0.00,VWS V14.01,2013-07-31 04:57:00,